<?xml version="1.0" encoding="UTF-8"?>
<gpx xmlns="http://www.topografix.com/GPX/1/1" xmlns:gpsies="http://www.gpsies.com/GPX/1/0" creator="GPSies http://www.gpsies.com - Tour 07-1 Bremen-Nord mal anders - hin" version="1.1" xmlns:xsi="http://www.w3.org/2001/XMLSchema-instance" xsi:schemaLocation="http://www.topografix.com/GPX/1/1 http://www.topografix.com/GPX/1/1/gpx.xsd http://www.gpsies.com/GPX/1/0 http://www.gpsies.com/gpsies.xsd">
  <metadata>
    <name>Tour 07-1 Bremen-Nord mal anders - hin</name>
    <author>
      <name>kaapeeh</name>
      <link href="http://www.gpsies.com/mapUser.do?username=kaapeeh">
        <text>kaapeeh on GPSies.com</text>
        <type>GPSiesUserOnWeb</type>
      </link>
    </author>
    <link href="http://www.gpsies.com/map.do?fileId=jurslllvmttnxwox">
      <text>Tour 07-1 Bremen-Nord mal anders - hin on GPSies.com</text>
      <type>trackOnWeb</type>
    </link>
    <time>2015-12-21T11:26:15Z</time>
    <extensions>
      <gpsies:property>one-way trip</gpsies:property>
      <gpsies:trackLengthMeter>25637.502034754187</gpsies:trackLengthMeter>
      <gpsies:totalAscentMeter>142.0</gpsies:totalAscentMeter>
      <gpsies:totalDescentMeter>146.0</gpsies:totalDescentMeter>
      <gpsies:minHeightMeter>-2.0</gpsies:minHeightMeter>
      <gpsies:maxHeightMeter>18.0</gpsies:maxHeightMeter>
    </extensions>
  </metadata>
  <wpt lat="53.10087854" lon="8.836741447">
    <ele>4.0000000</ele>
    <name>TIPP 1: Waldbühne</name>
    <desc>Parkallee, 28209 Bremen
Telefon: 04 21 / 21 74 15</desc>
    <link href="http://www.waldbuehne.com">
      <type>web</type>
    </link>
    <sym>generic</sym>
    <type>Generic</type>
  </wpt>
  <wpt lat="53.11273926" lon="8.806303739">
    <ele>0.0000000</ele>
    <name>TIPP 2: Kaisenhaus-Museum</name>
    <desc>Behrensweg 5a, Bremen-Walle
Kontakt: Cecilie Eckler-von Gleich
Telefon: 04 21 / 388 70 78</desc>
    <link href="http://www.kaisenhaus.de">
      <type>web</type>
    </link>
    <sym>generic</sym>
    <type>Generic</type>
  </wpt>
  <wpt lat="53.15656298" lon="8.704669475">
    <ele>2.0000000</ele>
    <name>TIPP 3: Lesumbrücke</name>
    <sym>generic</sym>
    <type>Generic</type>
  </wpt>
  <wpt lat="53.16242657" lon="8.668046593">
    <ele>14.000000</ele>
    <name>TIPP 4: Café Knoops Park</name>
    <desc>Admiral-Brommy-Weg 4a, 28717 Bremen
Telefon: 04 21 / 63 17 11</desc>
    <link href="http://www.cafeknoopspark.de">
      <type>web</type>
    </link>
    <sym>generic</sym>
    <type>Generic</type>
  </wpt>
  <wpt lat="53.16889392" lon="8.622819185">
    <ele>5.0000000</ele>
    <name>TIPP 5: Fähre Vegesack - Lemwerder</name>
    <link href="http://www.faehren-bremen.de">
      <type>web</type>
    </link>
    <sym>generic</sym>
    <type>Generic</type>
  </wpt>
  <wpt lat="53.14497498" lon="8.724684119">
    <ele>1.0000000</ele>
    <name>Fußweg! Rücksicht!</name>
    <sym>generic</sym>
    <type>Generic</type>
  </wpt>
  <trk>
    <name>Tour 07-1 Bremen-Nord mal anders - hin on GPSies.com</name>
    <link href="http://www.gpsies.com/map.do?fileId=jurslllvmttnxwox">
      <type>trackOnWeb</type>
    </link>
    <link href="http://www.gpsies.com/charts/ju/map/jurslllvmttnxwox_map.png">
      <type>elevationChartUrlMap</type>
    </link>
    <link href="http://www.gpsies.com/charts/ju/mapThumb/jurslllvmttnxwox_mapThumb.png">
      <type>elevationChartUrlMapThumb</type>
    </link>
    <link href="http://www.gpsies.com/charts/ju/tab/jurslllvmttnxwox_tab.png">
      <type>elevationChartUrlTab</type>
    </link>
    <trkseg>
      <trkpt lat="53.08334850" lon="8.812393180">
        <ele>9.0000000</ele>
        <time>2010-01-01T00:00:00Z</time>
      </trkpt>
      <trkpt lat="53.08323700" lon="8.812245820">
        <ele>8.0000000</ele>
        <time>2010-01-01T00:00:05Z</time>
      </trkpt>
      <trkpt lat="53.08320120" lon="8.812335560">
        <ele>8.0000000</ele>
        <time>2010-01-01T00:00:08Z</time>
      </trkpt>
      <trkpt lat="53.08301200" lon="8.812097510">
        <ele>8.0000000</ele>
        <time>2010-01-01T00:00:17Z</time>
      </trkpt>
      <trkpt lat="53.08308810" lon="8.811918020">
        <ele>7.0000000</ele>
        <time>2010-01-01T00:00:23Z</time>
      </trkpt>
      <trkpt lat="53.08310160" lon="8.811888100">
        <ele>7.0000000</ele>
        <time>2010-01-01T00:00:23Z</time>
      </trkpt>
      <trkpt lat="53.08277880" lon="8.812426970">
        <ele>8.0000000</ele>
        <time>2010-01-01T00:00:42Z</time>
      </trkpt>
      <trkpt lat="53.08273840" lon="8.812457000">
        <ele>8.0000000</ele>
        <time>2010-01-01T00:00:44Z</time>
      </trkpt>
      <trkpt lat="53.08255470" lon="8.812845970">
        <ele>7.0000000</ele>
        <time>2010-01-01T00:00:55Z</time>
      </trkpt>
      <trkpt lat="53.08182890" lon="8.814342020">
        <ele>4.0000000</ele>
        <time>2010-01-01T00:01:42Z</time>
      </trkpt>
      <trkpt lat="53.08177150" lon="8.814489840">
        <ele>4.0000000</ele>
        <time>2010-01-01T00:01:46Z</time>
      </trkpt>
      <trkpt lat="53.08168450" lon="8.814404010">
        <ele>4.0000000</ele>
        <time>2010-01-01T00:01:50Z</time>
      </trkpt>
      <trkpt lat="53.08164900" lon="8.814446920">
        <ele>4.0000000</ele>
        <time>2010-01-01T00:01:52Z</time>
      </trkpt>
      <trkpt lat="53.08149430" lon="8.814725870">
        <ele>7.0000000</ele>
        <time>2010-01-01T00:02:01Z</time>
      </trkpt>
      <trkpt lat="53.08157170" lon="8.814892170">
        <ele>7.0000000</ele>
        <time>2010-01-01T00:02:06Z</time>
      </trkpt>
      <trkpt lat="53.08167480" lon="8.815015550">
        <ele>8.0000000</ele>
        <time>2010-01-01T00:02:11Z</time>
      </trkpt>
      <trkpt lat="53.08178760" lon="8.815106740">
        <ele>8.0000000</ele>
        <time>2010-01-01T00:02:16Z</time>
      </trkpt>
      <trkpt lat="53.08201630" lon="8.815112110">
        <ele>7.0000000</ele>
        <time>2010-01-01T00:02:25Z</time>
      </trkpt>
      <trkpt lat="53.08215170" lon="8.815144300">
        <ele>7.0000000</ele>
        <time>2010-01-01T00:02:31Z</time>
      </trkpt>
      <trkpt lat="53.08260600" lon="8.815734380">
        <ele>7.0000000</ele>
        <time>2010-01-01T00:02:54Z</time>
      </trkpt>
      <trkpt lat="53.08282190" lon="8.816034790">
        <ele>7.0000000</ele>
        <time>2010-01-01T00:03:05Z</time>
      </trkpt>
      <trkpt lat="53.08299910" lon="8.816270820">
        <ele>8.0000000</ele>
        <time>2010-01-01T00:03:14Z</time>
      </trkpt>
      <trkpt lat="53.08311190" lon="8.816453210">
        <ele>9.0000000</ele>
        <time>2010-01-01T00:03:20Z</time>
      </trkpt>
      <trkpt lat="53.08323110" lon="8.816721430">
        <ele>9.0000000</ele>
        <time>2010-01-01T00:03:28Z</time>
      </trkpt>
      <trkpt lat="53.08341160" lon="8.817332980">
        <ele>7.0000000</ele>
        <time>2010-01-01T00:03:45Z</time>
      </trkpt>
      <trkpt lat="53.08359200" lon="8.817214960">
        <ele>7.0000000</ele>
        <time>2010-01-01T00:03:53Z</time>
      </trkpt>
      <trkpt lat="53.08412040" lon="8.816640970">
        <ele>10.000000</ele>
        <time>2010-01-01T00:04:18Z</time>
      </trkpt>
      <trkpt lat="53.08418160" lon="8.816544410">
        <ele>10.000000</ele>
        <time>2010-01-01T00:04:21Z</time>
      </trkpt>
      <trkpt lat="53.08455190" lon="8.816689250">
        <ele>8.0000000</ele>
        <time>2010-01-01T00:04:36Z</time>
      </trkpt>
      <trkpt lat="53.08515020" lon="8.817045030">
        <ele>5.0000000</ele>
        <time>2010-01-01T00:05:02Z</time>
      </trkpt>
      <trkpt lat="53.08541250" lon="8.817236420">
        <ele>6.0000000</ele>
        <time>2010-01-01T00:05:13Z</time>
      </trkpt>
      <trkpt lat="53.08563160" lon="8.817429540">
        <ele>6.0000000</ele>
        <time>2010-01-01T00:05:23Z</time>
      </trkpt>
      <trkpt lat="53.08590870" lon="8.817654840">
        <ele>6.0000000</ele>
        <time>2010-01-01T00:05:36Z</time>
      </trkpt>
      <trkpt lat="53.08618250" lon="8.817965980">
        <ele>5.0000000</ele>
        <time>2010-01-01T00:05:49Z</time>
      </trkpt>
      <trkpt lat="53.08648540" lon="8.818298570">
        <ele>4.0000000</ele>
        <time>2010-01-01T00:06:03Z</time>
      </trkpt>
      <trkpt lat="53.08654340" lon="8.818438050">
        <ele>4.0000000</ele>
        <time>2010-01-01T00:06:07Z</time>
      </trkpt>
      <trkpt lat="53.08699170" lon="8.819127550">
        <ele>6.0000000</ele>
        <time>2010-01-01T00:06:32Z</time>
      </trkpt>
      <trkpt lat="53.08665290" lon="8.819829720">
        <ele>9.0000000</ele>
        <time>2010-01-01T00:06:53Z</time>
      </trkpt>
      <trkpt lat="53.08699170" lon="8.819127550">
        <ele>6.0000000</ele>
        <time>2010-01-01T00:07:15Z</time>
      </trkpt>
      <trkpt lat="53.08697820" lon="8.819127600">
        <ele>6.0000000</ele>
        <time>2010-01-01T00:07:16Z</time>
      </trkpt>
      <trkpt lat="53.08702770" lon="8.819187120">
        <ele>6.0000000</ele>
        <time>2010-01-01T00:07:18Z</time>
      </trkpt>
      <trkpt lat="53.08713580" lon="8.819335980">
        <ele>6.0000000</ele>
        <time>2010-01-01T00:07:24Z</time>
      </trkpt>
      <trkpt lat="53.08711790" lon="8.819365910">
        <ele>6.0000000</ele>
        <time>2010-01-01T00:07:25Z</time>
      </trkpt>
      <trkpt lat="53.08703720" lon="8.819515560">
        <ele>8.0000000</ele>
        <time>2010-01-01T00:07:30Z</time>
      </trkpt>
      <trkpt lat="53.08701060" lon="8.819754570">
        <ele>8.0000000</ele>
        <time>2010-01-01T00:07:35Z</time>
      </trkpt>
      <trkpt lat="53.08702010" lon="8.820112870">
        <ele>8.0000000</ele>
        <time>2010-01-01T00:07:44Z</time>
      </trkpt>
      <trkpt lat="53.08705640" lon="8.820321750">
        <ele>9.0000000</ele>
        <time>2010-01-01T00:07:49Z</time>
      </trkpt>
      <trkpt lat="53.08711060" lon="8.820500690">
        <ele>10.000000</ele>
        <time>2010-01-01T00:07:54Z</time>
      </trkpt>
      <trkpt lat="53.08715120" lon="8.820590110">
        <ele>11.000000</ele>
        <time>2010-01-01T00:07:57Z</time>
      </trkpt>
      <trkpt lat="53.08708850" lon="8.820709820">
        <ele>11.000000</ele>
        <time>2010-01-01T00:08:01Z</time>
      </trkpt>
      <trkpt lat="53.08713800" lon="8.820799200">
        <ele>11.000000</ele>
        <time>2010-01-01T00:08:04Z</time>
      </trkpt>
      <trkpt lat="53.08756140" lon="8.821364820">
        <ele>11.000000</ele>
        <time>2010-01-01T00:08:25Z</time>
      </trkpt>
      <trkpt lat="53.08759290" lon="8.821394550">
        <ele>11.000000</ele>
        <time>2010-01-01T00:08:27Z</time>
      </trkpt>
      <trkpt lat="53.08776410" lon="8.821632740">
        <ele>10.000000</ele>
        <time>2010-01-01T00:08:36Z</time>
      </trkpt>
      <trkpt lat="53.08780010" lon="8.821662460">
        <ele>10.000000</ele>
        <time>2010-01-01T00:08:37Z</time>
      </trkpt>
      <trkpt lat="53.08802540" lon="8.821967210">
        <ele>8.0000000</ele>
        <time>2010-01-01T00:08:49Z</time>
      </trkpt>
      <trkpt lat="53.08819640" lon="8.822198340">
        <ele>8.0000000</ele>
        <time>2010-01-01T00:08:58Z</time>
      </trkpt>
      <trkpt lat="53.08866030" lon="8.822823550">
        <ele>11.000000</ele>
        <time>2010-01-01T00:09:22Z</time>
      </trkpt>
      <trkpt lat="53.08859280" lon="8.822823830">
        <ele>11.000000</ele>
        <time>2010-01-01T00:09:24Z</time>
      </trkpt>
      <trkpt lat="53.08849400" lon="8.822854100">
        <ele>10.000000</ele>
        <time>2010-01-01T00:09:28Z</time>
      </trkpt>
      <trkpt lat="53.08848070" lon="8.822973600">
        <ele>10.000000</ele>
        <time>2010-01-01T00:09:31Z</time>
      </trkpt>
      <trkpt lat="53.08844060" lon="8.823212670">
        <ele>11.000000</ele>
        <time>2010-01-01T00:09:37Z</time>
      </trkpt>
      <trkpt lat="53.08837660" lon="8.823405500">
        <ele>12.000000</ele>
        <time>2010-01-01T00:09:42Z</time>
      </trkpt>
      <trkpt lat="53.08786110" lon="8.824011680">
        <ele>10.000000</ele>
        <time>2010-01-01T00:10:08Z</time>
      </trkpt>
      <trkpt lat="53.08754790" lon="8.824410810">
        <ele>9.0000000</ele>
        <time>2010-01-01T00:10:24Z</time>
      </trkpt>
      <trkpt lat="53.08733270" lon="8.824692670">
        <ele>9.0000000</ele>
        <time>2010-01-01T00:10:35Z</time>
      </trkpt>
      <trkpt lat="53.08711740" lon="8.825039660">
        <ele>8.0000000</ele>
        <time>2010-01-01T00:10:47Z</time>
      </trkpt>
      <trkpt lat="53.08690210" lon="8.825369020">
        <ele>9.0000000</ele>
        <time>2010-01-01T00:10:58Z</time>
      </trkpt>
      <trkpt lat="53.08665110" lon="8.825847820">
        <ele>11.000000</ele>
        <time>2010-01-01T00:11:13Z</time>
      </trkpt>
      <trkpt lat="53.08665560" lon="8.825847800">
        <ele>11.000000</ele>
        <time>2010-01-01T00:11:14Z</time>
      </trkpt>
      <trkpt lat="53.08643380" lon="8.826404210">
        <ele>11.000000</ele>
        <time>2010-01-01T00:11:30Z</time>
      </trkpt>
      <trkpt lat="53.08648220" lon="8.826543680">
        <ele>11.000000</ele>
        <time>2010-01-01T00:11:34Z</time>
      </trkpt>
      <trkpt lat="53.08681400" lon="8.826608060">
        <ele>11.000000</ele>
        <time>2010-01-01T00:11:47Z</time>
      </trkpt>
      <trkpt lat="53.08760660" lon="8.826892370">
        <ele>9.0000000</ele>
        <time>2010-01-01T00:12:19Z</time>
      </trkpt>
      <trkpt lat="53.08800290" lon="8.827283970">
        <ele>12.000000</ele>
        <time>2010-01-01T00:12:38Z</time>
      </trkpt>
      <trkpt lat="53.08877580" lon="8.828078960">
        <ele>13.000000</ele>
        <time>2010-01-01T00:13:14Z</time>
      </trkpt>
      <trkpt lat="53.08972330" lon="8.828673360">
        <ele>14.000000</ele>
        <time>2010-01-01T00:13:55Z</time>
      </trkpt>
      <trkpt lat="53.08992290" lon="8.828701530">
        <ele>13.000000</ele>
        <time>2010-01-01T00:14:03Z</time>
      </trkpt>
      <trkpt lat="53.09024840" lon="8.829043500">
        <ele>12.000000</ele>
        <time>2010-01-01T00:14:18Z</time>
      </trkpt>
      <trkpt lat="53.09103130" lon="8.830025190">
        <ele>11.000000</ele>
        <time>2010-01-01T00:14:57Z</time>
      </trkpt>
      <trkpt lat="53.09135870" lon="8.830099470">
        <ele>12.000000</ele>
        <time>2010-01-01T00:15:11Z</time>
      </trkpt>
      <trkpt lat="53.09164660" lon="8.830196850">
        <ele>11.000000</ele>
        <time>2010-01-01T00:15:22Z</time>
      </trkpt>
      <trkpt lat="53.09198160" lon="8.830438250">
        <ele>10.000000</ele>
        <time>2010-01-01T00:15:37Z</time>
      </trkpt>
      <trkpt lat="53.09252930" lon="8.830856680">
        <ele>10.000000</ele>
        <time>2010-01-01T00:16:01Z</time>
      </trkpt>
      <trkpt lat="53.09286110" lon="8.830829850">
        <ele>9.0000000</ele>
        <time>2010-01-01T00:16:14Z</time>
      </trkpt>
      <trkpt lat="53.09333750" lon="8.830957800">
        <ele>9.0000000</ele>
        <time>2010-01-01T00:16:34Z</time>
      </trkpt>
      <trkpt lat="53.09396600" lon="8.831275100">
        <ele>12.000000</ele>
        <time>2010-01-01T00:17:00Z</time>
      </trkpt>
      <trkpt lat="53.09471660" lon="8.832101220">
        <ele>11.000000</ele>
        <time>2010-01-01T00:17:36Z</time>
      </trkpt>
      <trkpt lat="53.09522880" lon="8.832321160">
        <ele>11.000000</ele>
        <time>2010-01-01T00:17:57Z</time>
      </trkpt>
      <trkpt lat="53.09580250" lon="8.832262320">
        <ele>10.000000</ele>
        <time>2010-01-01T00:18:20Z</time>
      </trkpt>
      <trkpt lat="53.09623700" lon="8.832101220">
        <ele>11.000000</ele>
        <time>2010-01-01T00:18:38Z</time>
      </trkpt>
      <trkpt lat="53.09677730" lon="8.831900110">
        <ele>15.000000</ele>
        <time>2010-01-01T00:19:00Z</time>
      </trkpt>
      <trkpt lat="53.09734390" lon="8.832136850">
        <ele>16.000000</ele>
        <time>2010-01-01T00:19:24Z</time>
      </trkpt>
      <trkpt lat="53.09734460" lon="8.832614750">
        <ele>16.000000</ele>
        <time>2010-01-01T00:19:35Z</time>
      </trkpt>
      <trkpt lat="53.09758350" lon="8.833780280">
        <ele>13.000000</ele>
        <time>2010-01-01T00:20:05Z</time>
      </trkpt>
      <trkpt lat="53.09789270" lon="8.834418650">
        <ele>10.000000</ele>
        <time>2010-01-01T00:20:24Z</time>
      </trkpt>
      <trkpt lat="53.09844500" lon="8.835268880">
        <ele>12.000000</ele>
        <time>2010-01-01T00:20:55Z</time>
      </trkpt>
      <trkpt lat="53.09874850" lon="8.835610090">
        <ele>10.000000</ele>
        <time>2010-01-01T00:21:09Z</time>
      </trkpt>
      <trkpt lat="53.09904580" lon="8.835968970">
        <ele>10.000000</ele>
        <time>2010-01-01T00:21:24Z</time>
      </trkpt>
      <trkpt lat="53.09932600" lon="8.836221090">
        <ele>10.000000</ele>
        <time>2010-01-01T00:21:37Z</time>
      </trkpt>
      <trkpt lat="53.09964810" lon="8.836424940">
        <ele>10.000000</ele>
        <time>2010-01-01T00:21:50Z</time>
      </trkpt>
      <trkpt lat="53.09989940" lon="8.836489310">
        <ele>9.0000000</ele>
        <time>2010-01-01T00:22:01Z</time>
      </trkpt>
      <trkpt lat="53.10027160" lon="8.836546350">
        <ele>9.0000000</ele>
        <time>2010-01-01T00:22:16Z</time>
      </trkpt>
      <trkpt lat="53.10058220" lon="8.836382030">
        <ele>8.0000000</ele>
        <time>2010-01-01T00:22:29Z</time>
      </trkpt>
      <trkpt lat="53.10075610" lon="8.836017250">
        <ele>7.0000000</ele>
        <time>2010-01-01T00:22:40Z</time>
      </trkpt>
      <trkpt lat="53.10085070" lon="8.836036340">
        <ele>7.0000000</ele>
        <time>2010-01-01T00:22:44Z</time>
      </trkpt>
      <trkpt lat="53.10093650" lon="8.836044070">
        <ele>6.0000000</ele>
        <time>2010-01-01T00:22:47Z</time>
      </trkpt>
      <trkpt lat="53.10121870" lon="8.835646610">
        <ele>8.0000000</ele>
        <time>2010-01-01T00:23:02Z</time>
      </trkpt>
      <trkpt lat="53.10137980" lon="8.835138180">
        <ele>9.0000000</ele>
        <time>2010-01-01T00:23:16Z</time>
      </trkpt>
      <trkpt lat="53.10139190" lon="8.834122500">
        <ele>10.000000</ele>
        <time>2010-01-01T00:23:40Z</time>
      </trkpt>
      <trkpt lat="53.10135950" lon="8.833465440">
        <ele>9.0000000</ele>
        <time>2010-01-01T00:23:56Z</time>
      </trkpt>
      <trkpt lat="53.10138970" lon="8.832569180">
        <ele>11.000000</ele>
        <time>2010-01-01T00:24:18Z</time>
      </trkpt>
      <trkpt lat="53.10159990" lon="8.831791690">
        <ele>10.000000</ele>
        <time>2010-01-01T00:24:38Z</time>
      </trkpt>
      <trkpt lat="53.10167920" lon="8.831456460">
        <ele>10.000000</ele>
        <time>2010-01-01T00:24:47Z</time>
      </trkpt>
      <trkpt lat="53.10176970" lon="8.831074100">
        <ele>10.000000</ele>
        <time>2010-01-01T00:24:57Z</time>
      </trkpt>
      <trkpt lat="53.10184950" lon="8.830297120">
        <ele>12.000000</ele>
        <time>2010-01-01T00:25:15Z</time>
      </trkpt>
      <trkpt lat="53.10182170" lon="8.829729660">
        <ele>11.000000</ele>
        <time>2010-01-01T00:25:29Z</time>
      </trkpt>
      <trkpt lat="53.10159580" lon="8.828953880">
        <ele>9.0000000</ele>
        <time>2010-01-01T00:25:50Z</time>
      </trkpt>
      <trkpt lat="53.10159130" lon="8.828953900">
        <ele>9.0000000</ele>
        <time>2010-01-01T00:25:50Z</time>
      </trkpt>
      <trkpt lat="53.10139310" lon="8.828626100">
        <ele>9.0000000</ele>
        <time>2010-01-01T00:26:01Z</time>
      </trkpt>
      <trkpt lat="53.10118130" lon="8.828268480">
        <ele>11.000000</ele>
        <time>2010-01-01T00:26:13Z</time>
      </trkpt>
      <trkpt lat="53.10080780" lon="8.827941380">
        <ele>11.000000</ele>
        <time>2010-01-01T00:26:30Z</time>
      </trkpt>
      <trkpt lat="53.10077600" lon="8.827702540">
        <ele>10.000000</ele>
        <time>2010-01-01T00:26:36Z</time>
      </trkpt>
      <trkpt lat="53.10084340" lon="8.827672400">
        <ele>10.000000</ele>
        <time>2010-01-01T00:26:39Z</time>
      </trkpt>
      <trkpt lat="53.10098800" lon="8.827675580">
        <ele>9.0000000</ele>
        <time>2010-01-01T00:26:45Z</time>
      </trkpt>
      <trkpt lat="53.10116190" lon="8.827595110">
        <ele>7.0000000</ele>
        <time>2010-01-01T00:26:52Z</time>
      </trkpt>
      <trkpt lat="53.10126100" lon="8.827431760">
        <ele>4.0000000</ele>
        <time>2010-01-01T00:26:57Z</time>
      </trkpt>
      <trkpt lat="53.10129240" lon="8.827371890">
        <ele>4.0000000</ele>
        <time>2010-01-01T00:26:59Z</time>
      </trkpt>
      <trkpt lat="53.10158810" lon="8.826683650">
        <ele>2.0000000</ele>
        <time>2010-01-01T00:27:20Z</time>
      </trkpt>
      <trkpt lat="53.10176100" lon="8.826436400">
        <ele>2.0000000</ele>
        <time>2010-01-01T00:27:29Z</time>
      </trkpt>
      <trkpt lat="53.10265310" lon="8.825942870">
        <ele>5.0000000</ele>
        <time>2010-01-01T00:28:06Z</time>
      </trkpt>
      <trkpt lat="53.10293520" lon="8.825841800">
        <ele>7.0000000</ele>
        <time>2010-01-01T00:28:18Z</time>
      </trkpt>
      <trkpt lat="53.10302500" lon="8.825781690">
        <ele>8.0000000</ele>
        <time>2010-01-01T00:28:22Z</time>
      </trkpt>
      <trkpt lat="53.10332570" lon="8.825451870">
        <ele>9.0000000</ele>
        <time>2010-01-01T00:28:36Z</time>
      </trkpt>
      <trkpt lat="53.10352320" lon="8.825271830">
        <ele>7.0000000</ele>
        <time>2010-01-01T00:28:45Z</time>
      </trkpt>
      <trkpt lat="53.10406700" lon="8.824891440">
        <ele>6.0000000</ele>
        <time>2010-01-01T00:29:09Z</time>
      </trkpt>
      <trkpt lat="53.10469820" lon="8.824456930">
        <ele>6.0000000</ele>
        <time>2010-01-01T00:29:36Z</time>
      </trkpt>
      <trkpt lat="53.10584470" lon="8.823679080">
        <ele>6.0000000</ele>
        <time>2010-01-01T00:30:26Z</time>
      </trkpt>
      <trkpt lat="53.10608950" lon="8.823550340">
        <ele>5.0000000</ele>
        <time>2010-01-01T00:30:36Z</time>
      </trkpt>
      <trkpt lat="53.10628590" lon="8.823582530">
        <ele>5.0000000</ele>
        <time>2010-01-01T00:30:44Z</time>
      </trkpt>
      <trkpt lat="53.10648880" lon="8.823732730">
        <ele>5.0000000</ele>
        <time>2010-01-01T00:30:53Z</time>
      </trkpt>
      <trkpt lat="53.10678830" lon="8.824000950">
        <ele>5.0000000</ele>
        <time>2010-01-01T00:31:07Z</time>
      </trkpt>
      <trkpt lat="53.10693320" lon="8.824038500">
        <ele>4.0000000</ele>
        <time>2010-01-01T00:31:12Z</time>
      </trkpt>
      <trkpt lat="53.10736800" lon="8.824065320">
        <ele>4.0000000</ele>
        <time>2010-01-01T00:31:30Z</time>
      </trkpt>
      <trkpt lat="53.10847260" lon="8.824564210">
        <ele>3.0000000</ele>
        <time>2010-01-01T00:32:16Z</time>
      </trkpt>
      <trkpt lat="53.10892020" lon="8.824591040">
        <ele>6.0000000</ele>
        <time>2010-01-01T00:32:34Z</time>
      </trkpt>
      <trkpt lat="53.10932910" lon="8.824451560">
        <ele>6.0000000</ele>
        <time>2010-01-01T00:32:50Z</time>
      </trkpt>
      <trkpt lat="53.10974130" lon="8.824462290">
        <ele>5.0000000</ele>
        <time>2010-01-01T00:33:07Z</time>
      </trkpt>
      <trkpt lat="53.11043690" lon="8.824553480">
        <ele>3.0000000</ele>
        <time>2010-01-01T00:33:35Z</time>
      </trkpt>
      <trkpt lat="53.11058500" lon="8.824719780">
        <ele>2.0000000</ele>
        <time>2010-01-01T00:33:42Z</time>
      </trkpt>
      <trkpt lat="53.11080400" lon="8.824843160">
        <ele>1.0000000</ele>
        <time>2010-01-01T00:33:51Z</time>
      </trkpt>
      <trkpt lat="53.11106300" lon="8.823807110">
        <ele>2.0000000</ele>
        <time>2010-01-01T00:34:18Z</time>
      </trkpt>
      <trkpt lat="53.11164890" lon="8.821547910">
        <ele>2.0000000</ele>
        <time>2010-01-01T00:35:17Z</time>
      </trkpt>
      <trkpt lat="53.11173780" lon="8.821204890">
        <ele>2.0000000</ele>
        <time>2010-01-01T00:35:26Z</time>
      </trkpt>
      <trkpt lat="53.11204290" lon="8.820785310">
        <ele>3.0000000</ele>
        <time>2010-01-01T00:35:42Z</time>
      </trkpt>
      <trkpt lat="53.11199220" lon="8.820428250">
        <ele>2.0000000</ele>
        <time>2010-01-01T00:35:51Z</time>
      </trkpt>
      <trkpt lat="53.11208560" lon="8.820390700">
        <ele>2.0000000</ele>
        <time>2010-01-01T00:35:55Z</time>
      </trkpt>
      <trkpt lat="53.11204190" lon="8.820127980">
        <ele>2.0000000</ele>
        <time>2010-01-01T00:36:01Z</time>
      </trkpt>
      <trkpt lat="53.11205090" lon="8.820127940">
        <ele>2.0000000</ele>
        <time>2010-01-01T00:36:02Z</time>
      </trkpt>
      <trkpt lat="53.11181060" lon="8.818814270">
        <ele>1.0000000</ele>
        <time>2010-01-01T00:36:35Z</time>
      </trkpt>
      <trkpt lat="53.11177640" lon="8.818556070">
        <ele>1.0000000</ele>
        <time>2010-01-01T00:36:41Z</time>
      </trkpt>
      <trkpt lat="53.11163950" lon="8.818605840">
        <ele>1.0000000</ele>
        <time>2010-01-01T00:36:47Z</time>
      </trkpt>
      <trkpt lat="53.11160770" lon="8.818366940">
        <ele>1.0000000</ele>
        <time>2010-01-01T00:36:52Z</time>
      </trkpt>
      <trkpt lat="53.11146250" lon="8.817441310">
        <ele>1.0000000</ele>
        <time>2010-01-01T00:37:15Z</time>
      </trkpt>
      <trkpt lat="53.11129910" lon="8.816426130">
        <ele>2.0000000</ele>
        <time>2010-01-01T00:37:41Z</time>
      </trkpt>
      <trkpt lat="53.11121260" lon="8.815709420">
        <ele>1.0000000</ele>
        <time>2010-01-01T00:37:58Z</time>
      </trkpt>
      <trkpt lat="53.11116200" lon="8.814992550">
        <ele>0.0000000</ele>
        <time>2010-01-01T00:38:16Z</time>
      </trkpt>
      <trkpt lat="53.11114790" lon="8.814604190">
        <ele>0.0000000</ele>
        <time>2010-01-01T00:38:25Z</time>
      </trkpt>
      <trkpt lat="53.11115610" lon="8.814096220">
        <ele>1.0000000</ele>
        <time>2010-01-01T00:38:37Z</time>
      </trkpt>
      <trkpt lat="53.11118660" lon="8.813468640">
        <ele>1.0000000</ele>
        <time>2010-01-01T00:38:52Z</time>
      </trkpt>
      <trkpt lat="53.11117310" lon="8.813438820">
        <ele>1.0000000</ele>
        <time>2010-01-01T00:38:53Z</time>
      </trkpt>
      <trkpt lat="53.11113260" lon="8.813438990">
        <ele>1.0000000</ele>
        <time>2010-01-01T00:38:55Z</time>
      </trkpt>
      <trkpt lat="53.11111920" lon="8.813439050">
        <ele>1.0000000</ele>
        <time>2010-01-01T00:38:55Z</time>
      </trkpt>
      <trkpt lat="53.11111440" lon="8.813289680">
        <ele>1.0000000</ele>
        <time>2010-01-01T00:38:59Z</time>
      </trkpt>
      <trkpt lat="53.11109100" lon="8.812691280">
        <ele>3.0000000</ele>
        <time>2010-01-01T00:39:13Z</time>
      </trkpt>
      <trkpt lat="53.11108630" lon="8.812572720">
        <ele>3.0000000</ele>
        <time>2010-01-01T00:39:16Z</time>
      </trkpt>
      <trkpt lat="53.11109440" lon="8.812004990">
        <ele>4.0000000</ele>
        <time>2010-01-01T00:39:30Z</time>
      </trkpt>
      <trkpt lat="53.11110280" lon="8.811586660">
        <ele>2.0000000</ele>
        <time>2010-01-01T00:39:40Z</time>
      </trkpt>
      <trkpt lat="53.11108020" lon="8.811527000">
        <ele>2.0000000</ele>
        <time>2010-01-01T00:39:42Z</time>
      </trkpt>
      <trkpt lat="53.11103960" lon="8.811467420">
        <ele>2.0000000</ele>
        <time>2010-01-01T00:39:44Z</time>
      </trkpt>
      <trkpt lat="53.11084630" lon="8.811438390">
        <ele>2.0000000</ele>
        <time>2010-01-01T00:39:52Z</time>
      </trkpt>
      <trkpt lat="53.11096150" lon="8.810392140">
        <ele>0.0000000</ele>
        <time>2010-01-01T00:40:17Z</time>
      </trkpt>
      <trkpt lat="53.11100980" lon="8.809912490">
        <ele>0.0000000</ele>
        <time>2010-01-01T00:40:29Z</time>
      </trkpt>
      <trkpt lat="53.11103670" lon="8.809644850">
        <ele>1.0000000</ele>
        <time>2010-01-01T00:40:35Z</time>
      </trkpt>
      <trkpt lat="53.11110850" lon="8.809525020">
        <ele>1.0000000</ele>
        <time>2010-01-01T00:40:39Z</time>
      </trkpt>
      <trkpt lat="53.11111260" lon="8.809285980">
        <ele>3.0000000</ele>
        <time>2010-01-01T00:40:45Z</time>
      </trkpt>
      <trkpt lat="53.11108980" lon="8.809106810">
        <ele>4.0000000</ele>
        <time>2010-01-01T00:40:49Z</time>
      </trkpt>
      <trkpt lat="53.11087780" lon="8.808659570">
        <ele>4.0000000</ele>
        <time>2010-01-01T00:41:03Z</time>
      </trkpt>
      <trkpt lat="53.11073350" lon="8.808361430">
        <ele>4.0000000</ele>
        <time>2010-01-01T00:41:12Z</time>
      </trkpt>
      <trkpt lat="53.11052180" lon="8.808063590">
        <ele>4.0000000</ele>
        <time>2010-01-01T00:41:23Z</time>
      </trkpt>
      <trkpt lat="53.11037760" lon="8.807825210">
        <ele>5.0000000</ele>
        <time>2010-01-01T00:41:32Z</time>
      </trkpt>
      <trkpt lat="53.11001350" lon="8.807796950">
        <ele>5.0000000</ele>
        <time>2010-01-01T00:41:46Z</time>
      </trkpt>
      <trkpt lat="53.10942820" lon="8.807202020">
        <ele>2.0000000</ele>
        <time>2010-01-01T00:42:14Z</time>
      </trkpt>
      <trkpt lat="53.10929730" lon="8.806844080">
        <ele>3.0000000</ele>
        <time>2010-01-01T00:42:24Z</time>
      </trkpt>
      <trkpt lat="53.10923420" lon="8.806754730">
        <ele>3.0000000</ele>
        <time>2010-01-01T00:42:27Z</time>
      </trkpt>
      <trkpt lat="53.10912190" lon="8.806755230">
        <ele>3.0000000</ele>
        <time>2010-01-01T00:42:32Z</time>
      </trkpt>
      <trkpt lat="53.10903190" lon="8.806725760">
        <ele>3.0000000</ele>
        <time>2010-01-01T00:42:35Z</time>
      </trkpt>
      <trkpt lat="53.10877100" lon="8.806577540">
        <ele>3.0000000</ele>
        <time>2010-01-01T00:42:46Z</time>
      </trkpt>
      <trkpt lat="53.10844680" lon="8.806373470">
        <ele>2.0000000</ele>
        <time>2010-01-01T00:43:00Z</time>
      </trkpt>
      <trkpt lat="53.10760310" lon="8.805890670">
        <ele>1.0000000</ele>
        <time>2010-01-01T00:43:36Z</time>
      </trkpt>
      <trkpt lat="53.10760310" lon="8.805745840">
        <ele>1.0000000</ele>
        <time>2010-01-01T00:43:39Z</time>
      </trkpt>
      <trkpt lat="53.10847820" lon="8.806190460">
        <ele>2.0000000</ele>
        <time>2010-01-01T00:44:16Z</time>
      </trkpt>
      <trkpt lat="53.10910790" lon="8.806486400">
        <ele>3.0000000</ele>
        <time>2010-01-01T00:44:42Z</time>
      </trkpt>
      <trkpt lat="53.10945840" lon="8.806425070">
        <ele>3.0000000</ele>
        <time>2010-01-01T00:44:56Z</time>
      </trkpt>
      <trkpt lat="53.11008720" lon="8.806123470">
        <ele>5.0000000</ele>
        <time>2010-01-01T00:45:22Z</time>
      </trkpt>
      <trkpt lat="53.11031170" lon="8.805973070">
        <ele>5.0000000</ele>
        <time>2010-01-01T00:45:32Z</time>
      </trkpt>
      <trkpt lat="53.11047780" lon="8.805882690">
        <ele>5.0000000</ele>
        <time>2010-01-01T00:45:39Z</time>
      </trkpt>
      <trkpt lat="53.11064400" lon="8.805822180">
        <ele>4.0000000</ele>
        <time>2010-01-01T00:45:46Z</time>
      </trkpt>
      <trkpt lat="53.11080130" lon="8.805791600">
        <ele>4.0000000</ele>
        <time>2010-01-01T00:45:52Z</time>
      </trkpt>
      <trkpt lat="53.11097210" lon="8.805790830">
        <ele>2.0000000</ele>
        <time>2010-01-01T00:45:59Z</time>
      </trkpt>
      <trkpt lat="53.11156090" lon="8.805818050">
        <ele>1.0000000</ele>
        <time>2010-01-01T00:46:23Z</time>
      </trkpt>
      <trkpt lat="53.11169580" lon="8.805817450">
        <ele>2.0000000</ele>
        <time>2010-01-01T00:46:28Z</time>
      </trkpt>
      <trkpt lat="53.11196080" lon="8.805696740">
        <ele>2.0000000</ele>
        <time>2010-01-01T00:46:39Z</time>
      </trkpt>
      <trkpt lat="53.11202430" lon="8.805671090">
        <ele>2.0000000</ele>
        <time>2010-01-01T00:46:42Z</time>
      </trkpt>
      <trkpt lat="53.11218530" lon="8.805606090">
        <ele>2.0000000</ele>
        <time>2010-01-01T00:46:48Z</time>
      </trkpt>
      <trkpt lat="53.11235140" lon="8.805485820">
        <ele>1.0000000</ele>
        <time>2010-01-01T00:46:56Z</time>
      </trkpt>
      <trkpt lat="53.11301290" lon="8.804919710">
        <ele>0.0000000</ele>
        <time>2010-01-01T00:47:25Z</time>
      </trkpt>
      <trkpt lat="53.11329630" lon="8.805627820">
        <ele>0.0000000</ele>
        <time>2010-01-01T00:47:46Z</time>
      </trkpt>
      <trkpt lat="53.11267160" lon="8.806153530">
        <ele>0.0000000</ele>
        <time>2010-01-01T00:48:14Z</time>
      </trkpt>
      <trkpt lat="53.11272310" lon="8.806207180">
        <ele>0.0000000</ele>
        <time>2010-01-01T00:48:16Z</time>
      </trkpt>
      <trkpt lat="53.11338640" lon="8.805660000">
        <ele>-1.000000</ele>
        <time>2010-01-01T00:48:46Z</time>
      </trkpt>
      <trkpt lat="53.11307730" lon="8.804876800">
        <ele>0.0000000</ele>
        <time>2010-01-01T00:49:08Z</time>
      </trkpt>
      <trkpt lat="53.11346010" lon="8.804554530">
        <ele>2.0000000</ele>
        <time>2010-01-01T00:49:26Z</time>
      </trkpt>
      <trkpt lat="53.11359470" lon="8.804434400">
        <ele>1.0000000</ele>
        <time>2010-01-01T00:49:32Z</time>
      </trkpt>
      <trkpt lat="53.11368440" lon="8.804314480">
        <ele>1.0000000</ele>
        <time>2010-01-01T00:49:36Z</time>
      </trkpt>
      <trkpt lat="53.11376960" lon="8.804164690">
        <ele>0.0000000</ele>
        <time>2010-01-01T00:49:41Z</time>
      </trkpt>
      <trkpt lat="53.11382330" lon="8.804044920">
        <ele>0.0000000</ele>
        <time>2010-01-01T00:49:45Z</time>
      </trkpt>
      <trkpt lat="53.11386800" lon="8.803895320">
        <ele>0.0000000</ele>
        <time>2010-01-01T00:49:49Z</time>
      </trkpt>
      <trkpt lat="53.11401940" lon="8.803028090">
        <ele>2.0000000</ele>
        <time>2010-01-01T00:50:11Z</time>
      </trkpt>
      <trkpt lat="53.11413200" lon="8.802390720">
        <ele>4.0000000</ele>
        <time>2010-01-01T00:50:26Z</time>
      </trkpt>
      <trkpt lat="53.11441570" lon="8.800785230">
        <ele>2.0000000</ele>
        <time>2010-01-01T00:51:07Z</time>
      </trkpt>
      <trkpt lat="53.11454040" lon="8.800127270">
        <ele>2.0000000</ele>
        <time>2010-01-01T00:51:23Z</time>
      </trkpt>
      <trkpt lat="53.11459970" lon="8.799771770">
        <ele>2.0000000</ele>
        <time>2010-01-01T00:51:32Z</time>
      </trkpt>
      <trkpt lat="53.11466500" lon="8.799379670">
        <ele>2.0000000</ele>
        <time>2010-01-01T00:51:42Z</time>
      </trkpt>
      <trkpt lat="53.11486290" lon="8.799468390">
        <ele>1.0000000</ele>
        <time>2010-01-01T00:51:50Z</time>
      </trkpt>
      <trkpt lat="53.11518680" lon="8.799616290">
        <ele>0.0000000</ele>
        <time>2010-01-01T00:52:04Z</time>
      </trkpt>
      <trkpt lat="53.11587500" lon="8.799911910">
        <ele>1.0000000</ele>
        <time>2010-01-01T00:52:32Z</time>
      </trkpt>
      <trkpt lat="53.11597390" lon="8.799941330">
        <ele>1.0000000</ele>
        <time>2010-01-01T00:52:36Z</time>
      </trkpt>
      <trkpt lat="53.11639220" lon="8.800118680">
        <ele>2.0000000</ele>
        <time>2010-01-01T00:52:53Z</time>
      </trkpt>
      <trkpt lat="53.11668910" lon="8.800266720">
        <ele>1.0000000</ele>
        <time>2010-01-01T00:53:06Z</time>
      </trkpt>
      <trkpt lat="53.11677460" lon="8.800296200">
        <ele>1.0000000</ele>
        <time>2010-01-01T00:53:09Z</time>
      </trkpt>
      <trkpt lat="53.11684250" lon="8.800322440">
        <ele>1.0000000</ele>
        <time>2010-01-01T00:53:12Z</time>
      </trkpt>
      <trkpt lat="53.11708040" lon="8.800414320">
        <ele>0.0000000</ele>
        <time>2010-01-01T00:53:22Z</time>
      </trkpt>
      <trkpt lat="53.11719740" lon="8.800473540">
        <ele>-1.000000</ele>
        <time>2010-01-01T00:53:27Z</time>
      </trkpt>
      <trkpt lat="53.11739080" lon="8.800562290">
        <ele>-1.000000</ele>
        <time>2010-01-01T00:53:35Z</time>
      </trkpt>
      <trkpt lat="53.11739070" lon="8.800502530">
        <ele>-1.000000</ele>
        <time>2010-01-01T00:53:36Z</time>
      </trkpt>
      <trkpt lat="53.11738820" lon="8.799038280">
        <ele>4.0000000</ele>
        <time>2010-01-01T00:54:11Z</time>
      </trkpt>
      <trkpt lat="53.11739620" lon="8.798470470">
        <ele>5.0000000</ele>
        <time>2010-01-01T00:54:25Z</time>
      </trkpt>
      <trkpt lat="53.11737750" lon="8.798022320">
        <ele>4.0000000</ele>
        <time>2010-01-01T00:54:36Z</time>
      </trkpt>
      <trkpt lat="53.11734990" lon="8.797633970">
        <ele>3.0000000</ele>
        <time>2010-01-01T00:54:45Z</time>
      </trkpt>
      <trkpt lat="53.11734920" lon="8.797245500">
        <ele>3.0000000</ele>
        <time>2010-01-01T00:54:54Z</time>
      </trkpt>
      <trkpt lat="53.11734910" lon="8.797185730">
        <ele>3.0000000</ele>
        <time>2010-01-01T00:54:56Z</time>
      </trkpt>
      <trkpt lat="53.11734880" lon="8.796976550">
        <ele>3.0000000</ele>
        <time>2010-01-01T00:55:01Z</time>
      </trkpt>
      <trkpt lat="53.11736610" lon="8.796588000">
        <ele>3.0000000</ele>
        <time>2010-01-01T00:55:10Z</time>
      </trkpt>
      <trkpt lat="53.11740580" lon="8.796139570">
        <ele>2.0000000</ele>
        <time>2010-01-01T00:55:21Z</time>
      </trkpt>
      <trkpt lat="53.11758770" lon="8.794764090">
        <ele>1.0000000</ele>
        <time>2010-01-01T00:55:55Z</time>
      </trkpt>
      <trkpt lat="53.11759210" lon="8.794734190">
        <ele>1.0000000</ele>
        <time>2010-01-01T00:55:56Z</time>
      </trkpt>
      <trkpt lat="53.11760540" lon="8.794644470">
        <ele>2.0000000</ele>
        <time>2010-01-01T00:55:58Z</time>
      </trkpt>
      <trkpt lat="53.11761860" lon="8.794435230">
        <ele>2.0000000</ele>
        <time>2010-01-01T00:56:03Z</time>
      </trkpt>
      <trkpt lat="53.11762290" lon="8.794345560">
        <ele>2.0000000</ele>
        <time>2010-01-01T00:56:05Z</time>
      </trkpt>
      <trkpt lat="53.11767090" lon="8.793508610">
        <ele>4.0000000</ele>
        <time>2010-01-01T00:56:25Z</time>
      </trkpt>
      <trkpt lat="53.11772690" lon="8.792133720">
        <ele>3.0000000</ele>
        <time>2010-01-01T00:56:59Z</time>
      </trkpt>
      <trkpt lat="53.11770020" lon="8.791659640">
        <ele>4.0000000</ele>
        <time>2010-01-01T00:57:10Z</time>
      </trkpt>
      <trkpt lat="53.11765270" lon="8.790819220">
        <ele>2.0000000</ele>
        <time>2010-01-01T00:57:30Z</time>
      </trkpt>
      <trkpt lat="53.11765200" lon="8.790400860">
        <ele>3.0000000</ele>
        <time>2010-01-01T00:57:40Z</time>
      </trkpt>
      <trkpt lat="53.11754110" lon="8.789038790">
        <ele>3.0000000</ele>
        <time>2010-01-01T00:58:13Z</time>
      </trkpt>
      <trkpt lat="53.11752790" lon="8.788877440">
        <ele>3.0000000</ele>
        <time>2010-01-01T00:58:17Z</time>
      </trkpt>
      <trkpt lat="53.11735940" lon="8.787623190">
        <ele>6.0000000</ele>
        <time>2010-01-01T00:58:48Z</time>
      </trkpt>
      <trkpt lat="53.11735870" lon="8.787204830">
        <ele>6.0000000</ele>
        <time>2010-01-01T00:58:58Z</time>
      </trkpt>
      <trkpt lat="53.11736320" lon="8.787204810">
        <ele>6.0000000</ele>
        <time>2010-01-01T00:58:58Z</time>
      </trkpt>
      <trkpt lat="53.11738930" lon="8.786726560">
        <ele>6.0000000</ele>
        <time>2010-01-01T00:59:10Z</time>
      </trkpt>
      <trkpt lat="53.11746040" lon="8.786277960">
        <ele>7.0000000</ele>
        <time>2010-01-01T00:59:21Z</time>
      </trkpt>
      <trkpt lat="53.11750020" lon="8.785919170">
        <ele>8.0000000</ele>
        <time>2010-01-01T00:59:30Z</time>
      </trkpt>
      <trkpt lat="53.11754110" lon="8.785707810">
        <ele>9.0000000</ele>
        <time>2010-01-01T00:59:35Z</time>
      </trkpt>
      <trkpt lat="53.11759360" lon="8.785380810">
        <ele>7.0000000</ele>
        <time>2010-01-01T00:59:43Z</time>
      </trkpt>
      <trkpt lat="53.11760670" lon="8.785171560">
        <ele>5.0000000</ele>
        <time>2010-01-01T00:59:48Z</time>
      </trkpt>
      <trkpt lat="53.11751670" lon="8.785112250">
        <ele>5.0000000</ele>
        <time>2010-01-01T00:59:52Z</time>
      </trkpt>
      <trkpt lat="53.11726010" lon="8.784874470">
        <ele>4.0000000</ele>
        <time>2010-01-01T01:00:04Z</time>
      </trkpt>
      <trkpt lat="53.11703940" lon="8.784606620">
        <ele>4.0000000</ele>
        <time>2010-01-01T01:00:15Z</time>
      </trkpt>
      <trkpt lat="53.11696270" lon="8.784457590">
        <ele>3.0000000</ele>
        <time>2010-01-01T01:00:20Z</time>
      </trkpt>
      <trkpt lat="53.11689950" lon="8.784308500">
        <ele>3.0000000</ele>
        <time>2010-01-01T01:00:24Z</time>
      </trkpt>
      <trkpt lat="53.11684090" lon="8.784219140">
        <ele>3.0000000</ele>
        <time>2010-01-01T01:00:27Z</time>
      </trkpt>
      <trkpt lat="53.11675070" lon="8.784070180">
        <ele>3.0000000</ele>
        <time>2010-01-01T01:00:32Z</time>
      </trkpt>
      <trkpt lat="53.11666420" lon="8.783977030">
        <ele>4.0000000</ele>
        <time>2010-01-01T01:00:36Z</time>
      </trkpt>
      <trkpt lat="53.11606190" lon="8.783446110">
        <ele>3.0000000</ele>
        <time>2010-01-01T01:01:04Z</time>
      </trkpt>
      <trkpt lat="53.11600790" lon="8.783416500">
        <ele>3.0000000</ele>
        <time>2010-01-01T01:01:06Z</time>
      </trkpt>
      <trkpt lat="53.11592240" lon="8.783327290">
        <ele>2.0000000</ele>
        <time>2010-01-01T01:01:10Z</time>
      </trkpt>
      <trkpt lat="53.11636950" lon="8.782040110">
        <ele>2.0000000</ele>
        <time>2010-01-01T01:01:46Z</time>
      </trkpt>
      <trkpt lat="53.11694570" lon="8.780409680">
        <ele>2.0000000</ele>
        <time>2010-01-01T01:02:31Z</time>
      </trkpt>
      <trkpt lat="53.11727270" lon="8.779642580">
        <ele>2.0000000</ele>
        <time>2010-01-01T01:02:54Z</time>
      </trkpt>
      <trkpt lat="53.11748840" lon="8.779165140">
        <ele>3.0000000</ele>
        <time>2010-01-01T01:03:08Z</time>
      </trkpt>
      <trkpt lat="53.11755440" lon="8.778687230">
        <ele>3.0000000</ele>
        <time>2010-01-01T01:03:20Z</time>
      </trkpt>
      <trkpt lat="53.11754960" lon="8.778693070">
        <ele>3.0000000</ele>
        <time>2010-01-01T01:03:20Z</time>
      </trkpt>
      <trkpt lat="53.11763000" lon="8.778569690">
        <ele>3.0000000</ele>
        <time>2010-01-01T01:03:25Z</time>
      </trkpt>
      <trkpt lat="53.11766550" lon="8.778269290">
        <ele>3.0000000</ele>
        <time>2010-01-01T01:03:32Z</time>
      </trkpt>
      <trkpt lat="53.11778240" lon="8.778028630">
        <ele>3.0000000</ele>
        <time>2010-01-01T01:03:39Z</time>
      </trkpt>
      <trkpt lat="53.11836410" lon="8.777625560">
        <ele>4.0000000</ele>
        <time>2010-01-01T01:04:05Z</time>
      </trkpt>
      <trkpt lat="53.11860880" lon="8.777427070">
        <ele>5.0000000</ele>
        <time>2010-01-01T01:04:15Z</time>
      </trkpt>
      <trkpt lat="53.11906920" lon="8.777137390">
        <ele>4.0000000</ele>
        <time>2010-01-01T01:04:35Z</time>
      </trkpt>
      <trkpt lat="53.11924950" lon="8.777008650">
        <ele>4.0000000</ele>
        <time>2010-01-01T01:04:43Z</time>
      </trkpt>
      <trkpt lat="53.11984730" lon="8.776613420">
        <ele>3.0000000</ele>
        <time>2010-01-01T01:05:09Z</time>
      </trkpt>
      <trkpt lat="53.11990460" lon="8.776573970">
        <ele>3.0000000</ele>
        <time>2010-01-01T01:05:11Z</time>
      </trkpt>
      <trkpt lat="53.12019740" lon="8.776372530">
        <ele>4.0000000</ele>
        <time>2010-01-01T01:05:24Z</time>
      </trkpt>
      <trkpt lat="53.12040840" lon="8.776222010">
        <ele>3.0000000</ele>
        <time>2010-01-01T01:05:33Z</time>
      </trkpt>
      <trkpt lat="53.12064620" lon="8.776041460">
        <ele>3.0000000</ele>
        <time>2010-01-01T01:05:44Z</time>
      </trkpt>
      <trkpt lat="53.12118480" lon="8.775620260">
        <ele>3.0000000</ele>
        <time>2010-01-01T01:06:07Z</time>
      </trkpt>
      <trkpt lat="53.12128800" lon="8.775530070">
        <ele>4.0000000</ele>
        <time>2010-01-01T01:06:12Z</time>
      </trkpt>
      <trkpt lat="53.12193010" lon="8.775168090">
        <ele>4.0000000</ele>
        <time>2010-01-01T01:06:39Z</time>
      </trkpt>
      <trkpt lat="53.12260760" lon="8.774566830">
        <ele>4.0000000</ele>
        <time>2010-01-01T01:07:10Z</time>
      </trkpt>
      <trkpt lat="53.12259410" lon="8.774537010">
        <ele>4.0000000</ele>
        <time>2010-01-01T01:07:11Z</time>
      </trkpt>
      <trkpt lat="53.12276900" lon="8.774356780">
        <ele>3.0000000</ele>
        <time>2010-01-01T01:07:19Z</time>
      </trkpt>
      <trkpt lat="53.12279590" lon="8.774326750">
        <ele>3.0000000</ele>
        <time>2010-01-01T01:07:20Z</time>
      </trkpt>
      <trkpt lat="53.12331160" lon="8.773696420">
        <ele>5.0000000</ele>
        <time>2010-01-01T01:07:46Z</time>
      </trkpt>
      <trkpt lat="53.12391620" lon="8.772527640">
        <ele>3.0000000</ele>
        <time>2010-01-01T01:08:23Z</time>
      </trkpt>
      <trkpt lat="53.12393420" lon="8.772557430">
        <ele>3.0000000</ele>
        <time>2010-01-01T01:08:24Z</time>
      </trkpt>
      <trkpt lat="53.12493210" lon="8.770280670">
        <ele>4.0000000</ele>
        <time>2010-01-01T01:09:32Z</time>
      </trkpt>
      <trkpt lat="53.12510220" lon="8.769891220">
        <ele>3.0000000</ele>
        <time>2010-01-01T01:09:43Z</time>
      </trkpt>
      <trkpt lat="53.12554460" lon="8.768928170">
        <ele>3.0000000</ele>
        <time>2010-01-01T01:10:12Z</time>
      </trkpt>
      <trkpt lat="53.12583170" lon="8.768303220">
        <ele>4.0000000</ele>
        <time>2010-01-01T01:10:31Z</time>
      </trkpt>
      <trkpt lat="53.12680730" lon="8.766145940">
        <ele>3.0000000</ele>
        <time>2010-01-01T01:11:36Z</time>
      </trkpt>
      <trkpt lat="53.12726400" lon="8.765216880">
        <ele>3.0000000</ele>
        <time>2010-01-01T01:12:05Z</time>
      </trkpt>
      <trkpt lat="53.12856900" lon="8.762423120">
        <ele>4.0000000</ele>
        <time>2010-01-01T01:13:30Z</time>
      </trkpt>
      <trkpt lat="53.12912580" lon="8.761231240">
        <ele>5.0000000</ele>
        <time>2010-01-01T01:14:06Z</time>
      </trkpt>
      <trkpt lat="53.12938980" lon="8.760661840">
        <ele>5.0000000</ele>
        <time>2010-01-01T01:14:24Z</time>
      </trkpt>
      <trkpt lat="53.12990000" lon="8.759582910">
        <ele>4.0000000</ele>
        <time>2010-01-01T01:14:57Z</time>
      </trkpt>
      <trkpt lat="53.13003020" lon="8.759492510">
        <ele>2.0000000</ele>
        <time>2010-01-01T01:15:02Z</time>
      </trkpt>
      <trkpt lat="53.13007040" lon="8.759342830">
        <ele>3.0000000</ele>
        <time>2010-01-01T01:15:06Z</time>
      </trkpt>
      <trkpt lat="53.13035230" lon="8.758743420">
        <ele>2.0000000</ele>
        <time>2010-01-01T01:15:25Z</time>
      </trkpt>
      <trkpt lat="53.13054480" lon="8.758353740">
        <ele>2.0000000</ele>
        <time>2010-01-01T01:15:37Z</time>
      </trkpt>
      <trkpt lat="53.13087160" lon="8.757724170">
        <ele>2.0000000</ele>
        <time>2010-01-01T01:15:57Z</time>
      </trkpt>
      <trkpt lat="53.13124760" lon="8.756944850">
        <ele>3.0000000</ele>
        <time>2010-01-01T01:16:21Z</time>
      </trkpt>
      <trkpt lat="53.13178000" lon="8.755746140">
        <ele>0.0000000</ele>
        <time>2010-01-01T01:16:56Z</time>
      </trkpt>
      <trkpt lat="53.13178550" lon="8.755730440">
        <ele>0.0000000</ele>
        <time>2010-01-01T01:16:57Z</time>
      </trkpt>
      <trkpt lat="53.13210620" lon="8.754817600">
        <ele>3.0000000</ele>
        <time>2010-01-01T01:17:22Z</time>
      </trkpt>
      <trkpt lat="53.13260230" lon="8.753469570">
        <ele>5.0000000</ele>
        <time>2010-01-01T01:18:00Z</time>
      </trkpt>
      <trkpt lat="53.13286110" lon="8.752571290">
        <ele>1.0000000</ele>
        <time>2010-01-01T01:18:24Z</time>
      </trkpt>
      <trkpt lat="53.13298120" lon="8.751942830">
        <ele>2.0000000</ele>
        <time>2010-01-01T01:18:40Z</time>
      </trkpt>
      <trkpt lat="53.13300350" lon="8.751853020">
        <ele>2.0000000</ele>
        <time>2010-01-01T01:18:42Z</time>
      </trkpt>
      <trkpt lat="53.13305270" lon="8.751763060">
        <ele>2.0000000</ele>
        <time>2010-01-01T01:18:45Z</time>
      </trkpt>
      <trkpt lat="53.13313800" lon="8.751702780">
        <ele>2.0000000</ele>
        <time>2010-01-01T01:18:49Z</time>
      </trkpt>
      <trkpt lat="53.13321410" lon="8.751582760">
        <ele>3.0000000</ele>
        <time>2010-01-01T01:18:53Z</time>
      </trkpt>
      <trkpt lat="53.13330360" lon="8.751372990">
        <ele>4.0000000</ele>
        <time>2010-01-01T01:18:59Z</time>
      </trkpt>
      <trkpt lat="53.13341520" lon="8.751013620">
        <ele>4.0000000</ele>
        <time>2010-01-01T01:19:09Z</time>
      </trkpt>
      <trkpt lat="53.13352250" lon="8.750743950">
        <ele>4.0000000</ele>
        <time>2010-01-01T01:19:17Z</time>
      </trkpt>
      <trkpt lat="53.13375550" lon="8.750383870">
        <ele>2.0000000</ele>
        <time>2010-01-01T01:19:30Z</time>
      </trkpt>
      <trkpt lat="53.13384020" lon="8.750054540">
        <ele>3.0000000</ele>
        <time>2010-01-01T01:19:38Z</time>
      </trkpt>
      <trkpt lat="53.13395200" lon="8.749784850">
        <ele>3.0000000</ele>
        <time>2010-01-01T01:19:46Z</time>
      </trkpt>
      <trkpt lat="53.13425920" lon="8.748407910">
        <ele>2.0000000</ele>
        <time>2010-01-01T01:20:21Z</time>
      </trkpt>
      <trkpt lat="53.13433500" lon="8.748108520">
        <ele>2.0000000</ele>
        <time>2010-01-01T01:20:29Z</time>
      </trkpt>
      <trkpt lat="53.13436180" lon="8.748048580">
        <ele>2.0000000</ele>
        <time>2010-01-01T01:20:31Z</time>
      </trkpt>
      <trkpt lat="53.13440230" lon="8.748048340">
        <ele>2.0000000</ele>
        <time>2010-01-01T01:20:33Z</time>
      </trkpt>
      <trkpt lat="53.13463170" lon="8.748136680">
        <ele>2.0000000</ele>
        <time>2010-01-01T01:20:42Z</time>
      </trkpt>
      <trkpt lat="53.13474790" lon="8.747837050">
        <ele>1.0000000</ele>
        <time>2010-01-01T01:20:51Z</time>
      </trkpt>
      <trkpt lat="53.13522230" lon="8.746847730">
        <ele>1.0000000</ele>
        <time>2010-01-01T01:21:21Z</time>
      </trkpt>
      <trkpt lat="53.13531620" lon="8.746637920">
        <ele>2.0000000</ele>
        <time>2010-01-01T01:21:27Z</time>
      </trkpt>
      <trkpt lat="53.13542360" lon="8.746428020">
        <ele>2.0000000</ele>
        <time>2010-01-01T01:21:34Z</time>
      </trkpt>
      <trkpt lat="53.13602770" lon="8.745168840">
        <ele>2.0000000</ele>
        <time>2010-01-01T01:22:13Z</time>
      </trkpt>
      <trkpt lat="53.13618440" lon="8.744868950">
        <ele>2.0000000</ele>
        <time>2010-01-01T01:22:22Z</time>
      </trkpt>
      <trkpt lat="53.13632330" lon="8.744658860">
        <ele>2.0000000</ele>
        <time>2010-01-01T01:22:30Z</time>
      </trkpt>
      <trkpt lat="53.13654310" lon="8.744478180">
        <ele>1.0000000</ele>
        <time>2010-01-01T01:22:40Z</time>
      </trkpt>
      <trkpt lat="53.13664640" lon="8.744447670">
        <ele>1.0000000</ele>
        <time>2010-01-01T01:22:44Z</time>
      </trkpt>
      <trkpt lat="53.13682150" lon="8.744356940">
        <ele>1.0000000</ele>
        <time>2010-01-01T01:22:51Z</time>
      </trkpt>
      <trkpt lat="53.13699660" lon="8.744266210">
        <ele>2.0000000</ele>
        <time>2010-01-01T01:22:58Z</time>
      </trkpt>
      <trkpt lat="53.13707730" lon="8.744176040">
        <ele>3.0000000</ele>
        <time>2010-01-01T01:23:02Z</time>
      </trkpt>
      <trkpt lat="53.13717140" lon="8.744026000">
        <ele>3.0000000</ele>
        <time>2010-01-01T01:23:07Z</time>
      </trkpt>
      <trkpt lat="53.13739050" lon="8.743516450">
        <ele>1.0000000</ele>
        <time>2010-01-01T01:23:23Z</time>
      </trkpt>
      <trkpt lat="53.13752450" lon="8.743127000">
        <ele>0.0000000</ele>
        <time>2010-01-01T01:23:33Z</time>
      </trkpt>
      <trkpt lat="53.13755570" lon="8.743007220">
        <ele>0.0000000</ele>
        <time>2010-01-01T01:23:36Z</time>
      </trkpt>
      <trkpt lat="53.13768950" lon="8.742528070">
        <ele>0.0000000</ele>
        <time>2010-01-01T01:23:49Z</time>
      </trkpt>
      <trkpt lat="53.13772520" lon="8.742378370">
        <ele>0.0000000</ele>
        <time>2010-01-01T01:23:53Z</time>
      </trkpt>
      <trkpt lat="53.13775640" lon="8.742258600">
        <ele>0.0000000</ele>
        <time>2010-01-01T01:23:56Z</time>
      </trkpt>
      <trkpt lat="53.13776090" lon="8.742258570">
        <ele>0.0000000</ele>
        <time>2010-01-01T01:23:56Z</time>
      </trkpt>
      <trkpt lat="53.13782760" lon="8.741959200">
        <ele>0.0000000</ele>
        <time>2010-01-01T01:24:04Z</time>
      </trkpt>
      <trkpt lat="53.13787220" lon="8.741779550">
        <ele>0.0000000</ele>
        <time>2010-01-01T01:24:09Z</time>
      </trkpt>
      <trkpt lat="53.13789000" lon="8.741689760">
        <ele>0.0000000</ele>
        <time>2010-01-01T01:24:11Z</time>
      </trkpt>
      <trkpt lat="53.13798350" lon="8.741300530">
        <ele>1.0000000</ele>
        <time>2010-01-01T01:24:21Z</time>
      </trkpt>
      <trkpt lat="53.13805940" lon="8.741060900">
        <ele>2.0000000</ele>
        <time>2010-01-01T01:24:28Z</time>
      </trkpt>
      <trkpt lat="53.13790180" lon="8.740912360">
        <ele>1.0000000</ele>
        <time>2010-01-01T01:24:35Z</time>
      </trkpt>
      <trkpt lat="53.13795540" lon="8.740762550">
        <ele>1.0000000</ele>
        <time>2010-01-01T01:24:39Z</time>
      </trkpt>
      <trkpt lat="53.13798230" lon="8.740762390">
        <ele>1.0000000</ele>
        <time>2010-01-01T01:24:40Z</time>
      </trkpt>
      <trkpt lat="53.13807690" lon="8.740851510">
        <ele>2.0000000</ele>
        <time>2010-01-01T01:24:44Z</time>
      </trkpt>
      <trkpt lat="53.13810820" lon="8.740761630">
        <ele>2.0000000</ele>
        <time>2010-01-01T01:24:47Z</time>
      </trkpt>
      <trkpt lat="53.13787400" lon="8.740553760">
        <ele>2.0000000</ele>
        <time>2010-01-01T01:24:58Z</time>
      </trkpt>
      <trkpt lat="53.13780190" lon="8.740464510">
        <ele>2.0000000</ele>
        <time>2010-01-01T01:25:01Z</time>
      </trkpt>
      <trkpt lat="53.13789150" lon="8.740344380">
        <ele>2.0000000</ele>
        <time>2010-01-01T01:25:06Z</time>
      </trkpt>
      <trkpt lat="53.13944010" lon="8.739021030">
        <ele>2.0000000</ele>
        <time>2010-01-01T01:26:15Z</time>
      </trkpt>
      <trkpt lat="53.14102740" lon="8.737664430">
        <ele>2.0000000</ele>
        <time>2010-01-01T01:27:27Z</time>
      </trkpt>
      <trkpt lat="53.14104080" lon="8.737604550">
        <ele>2.0000000</ele>
        <time>2010-01-01T01:27:28Z</time>
      </trkpt>
      <trkpt lat="53.14083700" lon="8.736933070">
        <ele>3.0000000</ele>
        <time>2010-01-01T01:27:46Z</time>
      </trkpt>
      <trkpt lat="53.14077820" lon="8.736739080">
        <ele>3.0000000</ele>
        <time>2010-01-01T01:27:52Z</time>
      </trkpt>
      <trkpt lat="53.14075970" lon="8.736500000">
        <ele>3.0000000</ele>
        <time>2010-01-01T01:27:57Z</time>
      </trkpt>
      <trkpt lat="53.14067860" lon="8.736410800">
        <ele>3.0000000</ele>
        <time>2010-01-01T01:28:01Z</time>
      </trkpt>
      <trkpt lat="53.14065130" lon="8.736261470">
        <ele>4.0000000</ele>
        <time>2010-01-01T01:28:05Z</time>
      </trkpt>
      <trkpt lat="53.14064200" lon="8.736141930">
        <ele>4.0000000</ele>
        <time>2010-01-01T01:28:08Z</time>
      </trkpt>
      <trkpt lat="53.14063730" lon="8.736052270">
        <ele>4.0000000</ele>
        <time>2010-01-01T01:28:10Z</time>
      </trkpt>
      <trkpt lat="53.14062340" lon="8.735872960">
        <ele>3.0000000</ele>
        <time>2010-01-01T01:28:14Z</time>
      </trkpt>
      <trkpt lat="53.14065480" lon="8.735812970">
        <ele>3.0000000</ele>
        <time>2010-01-01T01:28:16Z</time>
      </trkpt>
      <trkpt lat="53.14074470" lon="8.735842310">
        <ele>3.0000000</ele>
        <time>2010-01-01T01:28:20Z</time>
      </trkpt>
      <trkpt lat="53.14078070" lon="8.735842090">
        <ele>3.0000000</ele>
        <time>2010-01-01T01:28:21Z</time>
      </trkpt>
      <trkpt lat="53.14105930" lon="8.735840380">
        <ele>4.0000000</ele>
        <time>2010-01-01T01:28:33Z</time>
      </trkpt>
      <trkpt lat="53.14135150" lon="8.735838590">
        <ele>4.0000000</ele>
        <time>2010-01-01T01:28:44Z</time>
      </trkpt>
      <trkpt lat="53.14166190" lon="8.735956290">
        <ele>2.0000000</ele>
        <time>2010-01-01T01:28:57Z</time>
      </trkpt>
      <trkpt lat="53.14170430" lon="8.735774710">
        <ele>1.0000000</ele>
        <time>2010-01-01T01:29:02Z</time>
      </trkpt>
      <trkpt lat="53.14180880" lon="8.735327490">
        <ele>0.0000000</ele>
        <time>2010-01-01T01:29:13Z</time>
      </trkpt>
      <trkpt lat="53.14194710" lon="8.734878140">
        <ele>1.0000000</ele>
        <time>2010-01-01T01:29:25Z</time>
      </trkpt>
      <trkpt lat="53.14199150" lon="8.734608770">
        <ele>1.0000000</ele>
        <time>2010-01-01T01:29:32Z</time>
      </trkpt>
      <trkpt lat="53.14206270" lon="8.734279430">
        <ele>0.0000000</ele>
        <time>2010-01-01T01:29:40Z</time>
      </trkpt>
      <trkpt lat="53.14212920" lon="8.733890320">
        <ele>-1.000000</ele>
        <time>2010-01-01T01:29:50Z</time>
      </trkpt>
      <trkpt lat="53.14220740" lon="8.733534860">
        <ele>-2.000000</ele>
        <time>2010-01-01T01:29:59Z</time>
      </trkpt>
      <trkpt lat="53.14229380" lon="8.733141800">
        <ele>-2.000000</ele>
        <time>2010-01-01T01:30:09Z</time>
      </trkpt>
      <trkpt lat="53.14225760" lon="8.733022420">
        <ele>-2.000000</ele>
        <time>2010-01-01T01:30:13Z</time>
      </trkpt>
      <trkpt lat="53.14217660" lon="8.732963120">
        <ele>-1.000000</ele>
        <time>2010-01-01T01:30:16Z</time>
      </trkpt>
      <trkpt lat="53.14172210" lon="8.732726750">
        <ele>0.0000000</ele>
        <time>2010-01-01T01:30:35Z</time>
      </trkpt>
      <trkpt lat="53.14157360" lon="8.732637970">
        <ele>0.0000000</ele>
        <time>2010-01-01T01:30:41Z</time>
      </trkpt>
      <trkpt lat="53.14131700" lon="8.732460160">
        <ele>0.0000000</ele>
        <time>2010-01-01T01:30:53Z</time>
      </trkpt>
      <trkpt lat="53.14109170" lon="8.732322980">
        <ele>0.0000000</ele>
        <time>2010-01-01T01:31:02Z</time>
      </trkpt>
      <trkpt lat="53.14107390" lon="8.732312180">
        <ele>0.0000000</ele>
        <time>2010-01-01T01:31:03Z</time>
      </trkpt>
      <trkpt lat="53.14099740" lon="8.732252860">
        <ele>0.0000000</ele>
        <time>2010-01-01T01:31:06Z</time>
      </trkpt>
      <trkpt lat="53.14079930" lon="8.732104590">
        <ele>0.0000000</ele>
        <time>2010-01-01T01:31:15Z</time>
      </trkpt>
      <trkpt lat="53.14070010" lon="8.731985610">
        <ele>0.0000000</ele>
        <time>2010-01-01T01:31:20Z</time>
      </trkpt>
      <trkpt lat="53.14074920" lon="8.731805910">
        <ele>1.0000000</ele>
        <time>2010-01-01T01:31:25Z</time>
      </trkpt>
      <trkpt lat="53.14082080" lon="8.731655970">
        <ele>2.0000000</ele>
        <time>2010-01-01T01:31:29Z</time>
      </trkpt>
      <trkpt lat="53.14105350" lon="8.731235930">
        <ele>2.0000000</ele>
        <time>2010-01-01T01:31:43Z</time>
      </trkpt>
      <trkpt lat="53.14140260" lon="8.730575960">
        <ele>2.0000000</ele>
        <time>2010-01-01T01:32:04Z</time>
      </trkpt>
      <trkpt lat="53.14178300" lon="8.729855990">
        <ele>4.0000000</ele>
        <time>2010-01-01T01:32:27Z</time>
      </trkpt>
      <trkpt lat="53.14219470" lon="8.729046100">
        <ele>2.0000000</ele>
        <time>2010-01-01T01:32:53Z</time>
      </trkpt>
      <trkpt lat="53.14307080" lon="8.727541800">
        <ele>3.0000000</ele>
        <time>2010-01-01T01:33:43Z</time>
      </trkpt>
      <trkpt lat="53.14310350" lon="8.727485550">
        <ele>3.0000000</ele>
        <time>2010-01-01T01:33:45Z</time>
      </trkpt>
      <trkpt lat="53.14339000" lon="8.726975420">
        <ele>2.0000000</ele>
        <time>2010-01-01T01:34:02Z</time>
      </trkpt>
      <trkpt lat="53.14359140" lon="8.726585430">
        <ele>0.0000000</ele>
        <time>2010-01-01T01:34:14Z</time>
      </trkpt>
      <trkpt lat="53.14391830" lon="8.726045130">
        <ele>3.0000000</ele>
        <time>2010-01-01T01:34:32Z</time>
      </trkpt>
      <trkpt lat="53.14417760" lon="8.725445450">
        <ele>3.0000000</ele>
        <time>2010-01-01T01:34:50Z</time>
      </trkpt>
      <trkpt lat="53.14443270" lon="8.724995300">
        <ele>1.0000000</ele>
        <time>2010-01-01T01:35:05Z</time>
      </trkpt>
      <trkpt lat="53.14453560" lon="8.724785330">
        <ele>0.0000000</ele>
        <time>2010-01-01T01:35:12Z</time>
      </trkpt>
      <trkpt lat="53.14459330" lon="8.724645320">
        <ele>0.0000000</ele>
        <time>2010-01-01T01:35:16Z</time>
      </trkpt>
      <trkpt lat="53.14474570" lon="8.724275650">
        <ele>1.0000000</ele>
        <time>2010-01-01T01:35:26Z</time>
      </trkpt>
      <trkpt lat="53.14479930" lon="8.724155700">
        <ele>2.0000000</ele>
        <time>2010-01-01T01:35:30Z</time>
      </trkpt>
      <trkpt lat="53.14483990" lon="8.724185350">
        <ele>1.0000000</ele>
        <time>2010-01-01T01:35:32Z</time>
      </trkpt>
      <trkpt lat="53.14535460" lon="8.724984520">
        <ele>3.0000000</ele>
        <time>2010-01-01T01:36:00Z</time>
      </trkpt>
      <trkpt lat="53.14556700" lon="8.725343940">
        <ele>1.0000000</ele>
        <time>2010-01-01T01:36:12Z</time>
      </trkpt>
      <trkpt lat="53.14571170" lon="8.725880380">
        <ele>0.0000000</ele>
        <time>2010-01-01T01:36:26Z</time>
      </trkpt>
      <trkpt lat="53.14611390" lon="8.726486560">
        <ele>2.0000000</ele>
        <time>2010-01-01T01:36:48Z</time>
      </trkpt>
      <trkpt lat="53.14664950" lon="8.727343490">
        <ele>1.0000000</ele>
        <time>2010-01-01T01:37:18Z</time>
      </trkpt>
      <trkpt lat="53.14688290" lon="8.727661370">
        <ele>1.0000000</ele>
        <time>2010-01-01T01:37:30Z</time>
      </trkpt>
      <trkpt lat="53.14704150" lon="8.727759650">
        <ele>1.0000000</ele>
        <time>2010-01-01T01:37:36Z</time>
      </trkpt>
      <trkpt lat="53.14717150" lon="8.727639220">
        <ele>1.0000000</ele>
        <time>2010-01-01T01:37:42Z</time>
      </trkpt>
      <trkpt lat="53.14798150" lon="8.726108980">
        <ele>-1.000000</ele>
        <time>2010-01-01T01:38:31Z</time>
      </trkpt>
      <trkpt lat="53.14885950" lon="8.724817490">
        <ele>2.0000000</ele>
        <time>2010-01-01T01:39:18Z</time>
      </trkpt>
      <trkpt lat="53.14886390" lon="8.724787560">
        <ele>2.0000000</ele>
        <time>2010-01-01T01:39:19Z</time>
      </trkpt>
      <trkpt lat="53.14895830" lon="8.724462950">
        <ele>1.0000000</ele>
        <time>2010-01-01T01:39:28Z</time>
      </trkpt>
      <trkpt lat="53.14942130" lon="8.722870070">
        <ele>2.0000000</ele>
        <time>2010-01-01T01:40:10Z</time>
      </trkpt>
      <trkpt lat="53.14993810" lon="8.721643900">
        <ele>1.0000000</ele>
        <time>2010-01-01T01:40:46Z</time>
      </trkpt>
      <trkpt lat="53.15015440" lon="8.721130830">
        <ele>2.0000000</ele>
        <time>2010-01-01T01:41:01Z</time>
      </trkpt>
      <trkpt lat="53.15016780" lon="8.721100830">
        <ele>2.0000000</ele>
        <time>2010-01-01T01:41:02Z</time>
      </trkpt>
      <trkpt lat="53.15089070" lon="8.720797090">
        <ele>0.0000000</ele>
        <time>2010-01-01T01:41:32Z</time>
      </trkpt>
      <trkpt lat="53.15088610" lon="8.720767210">
        <ele>0.0000000</ele>
        <time>2010-01-01T01:41:33Z</time>
      </trkpt>
      <trkpt lat="53.15102980" lon="8.720706470">
        <ele>0.0000000</ele>
        <time>2010-01-01T01:41:39Z</time>
      </trkpt>
      <trkpt lat="53.15117790" lon="8.720615790">
        <ele>0.0000000</ele>
        <time>2010-01-01T01:41:45Z</time>
      </trkpt>
      <trkpt lat="53.15155040" lon="8.720374120">
        <ele>1.0000000</ele>
        <time>2010-01-01T01:42:01Z</time>
      </trkpt>
      <trkpt lat="53.15173010" lon="8.720313140">
        <ele>3.0000000</ele>
        <time>2010-01-01T01:42:08Z</time>
      </trkpt>
      <trkpt lat="53.15183790" lon="8.720312440">
        <ele>3.0000000</ele>
        <time>2010-01-01T01:42:13Z</time>
      </trkpt>
      <trkpt lat="53.15191440" lon="8.720341850">
        <ele>3.0000000</ele>
        <time>2010-01-01T01:42:16Z</time>
      </trkpt>
      <trkpt lat="53.15197300" lon="8.720401280">
        <ele>3.0000000</ele>
        <time>2010-01-01T01:42:18Z</time>
      </trkpt>
      <trkpt lat="53.15209930" lon="8.720579900">
        <ele>2.0000000</ele>
        <time>2010-01-01T01:42:25Z</time>
      </trkpt>
      <trkpt lat="53.15224810" lon="8.720818190">
        <ele>2.0000000</ele>
        <time>2010-01-01T01:42:33Z</time>
      </trkpt>
      <trkpt lat="53.15239260" lon="8.721086420">
        <ele>1.0000000</ele>
        <time>2010-01-01T01:42:42Z</time>
      </trkpt>
      <trkpt lat="53.15252350" lon="8.721324830">
        <ele>2.0000000</ele>
        <time>2010-01-01T01:42:50Z</time>
      </trkpt>
      <trkpt lat="53.15262280" lon="8.721503630">
        <ele>2.0000000</ele>
        <time>2010-01-01T01:42:56Z</time>
      </trkpt>
      <trkpt lat="53.15274460" lon="8.721712190">
        <ele>3.0000000</ele>
        <time>2010-01-01T01:43:03Z</time>
      </trkpt>
      <trkpt lat="53.15286240" lon="8.721812380">
        <ele>3.0000000</ele>
        <time>2010-01-01T01:43:08Z</time>
      </trkpt>
      <trkpt lat="53.15288420" lon="8.721830920">
        <ele>3.0000000</ele>
        <time>2010-01-01T01:43:09Z</time>
      </trkpt>
      <trkpt lat="53.15297420" lon="8.721860250">
        <ele>3.0000000</ele>
        <time>2010-01-01T01:43:13Z</time>
      </trkpt>
      <trkpt lat="53.15315850" lon="8.721859060">
        <ele>2.0000000</ele>
        <time>2010-01-01T01:43:20Z</time>
      </trkpt>
      <trkpt lat="53.15334720" lon="8.721827930">
        <ele>1.0000000</ele>
        <time>2010-01-01T01:43:28Z</time>
      </trkpt>
      <trkpt lat="53.15366600" lon="8.721706230">
        <ele>1.0000000</ele>
        <time>2010-01-01T01:43:41Z</time>
      </trkpt>
      <trkpt lat="53.15391300" lon="8.721614910">
        <ele>1.0000000</ele>
        <time>2010-01-01T01:43:51Z</time>
      </trkpt>
      <trkpt lat="53.15402090" lon="8.721614220">
        <ele>1.0000000</ele>
        <time>2010-01-01T01:43:55Z</time>
      </trkpt>
      <trkpt lat="53.15412440" lon="8.721673360">
        <ele>1.0000000</ele>
        <time>2010-01-01T01:43:59Z</time>
      </trkpt>
      <trkpt lat="53.15420100" lon="8.721762590">
        <ele>1.0000000</ele>
        <time>2010-01-01T01:44:03Z</time>
      </trkpt>
      <trkpt lat="53.15433200" lon="8.722060830">
        <ele>2.0000000</ele>
        <time>2010-01-01T01:44:12Z</time>
      </trkpt>
      <trkpt lat="53.15438180" lon="8.722180140">
        <ele>2.0000000</ele>
        <time>2010-01-01T01:44:16Z</time>
      </trkpt>
      <trkpt lat="53.15444940" lon="8.722269430">
        <ele>3.0000000</ele>
        <time>2010-01-01T01:44:19Z</time>
      </trkpt>
      <trkpt lat="53.15449450" lon="8.722328960">
        <ele>3.0000000</ele>
        <time>2010-01-01T01:44:21Z</time>
      </trkpt>
      <trkpt lat="53.15455300" lon="8.722358490">
        <ele>3.0000000</ele>
        <time>2010-01-01T01:44:24Z</time>
      </trkpt>
      <trkpt lat="53.15460250" lon="8.722388080">
        <ele>4.0000000</ele>
        <time>2010-01-01T01:44:26Z</time>
      </trkpt>
      <trkpt lat="53.15465190" lon="8.722357850">
        <ele>4.0000000</ele>
        <time>2010-01-01T01:44:28Z</time>
      </trkpt>
      <trkpt lat="53.15465170" lon="8.722298040">
        <ele>4.0000000</ele>
        <time>2010-01-01T01:44:29Z</time>
      </trkpt>
      <trkpt lat="53.15469220" lon="8.722297770">
        <ele>4.0000000</ele>
        <time>2010-01-01T01:44:31Z</time>
      </trkpt>
      <trkpt lat="53.15501090" lon="8.722116260">
        <ele>5.0000000</ele>
        <time>2010-01-01T01:44:44Z</time>
      </trkpt>
      <trkpt lat="53.15500210" lon="8.722077810">
        <ele>5.0000000</ele>
        <time>2010-01-01T01:44:45Z</time>
      </trkpt>
      <trkpt lat="53.15501090" lon="8.722116260">
        <ele>5.0000000</ele>
        <time>2010-01-01T01:44:46Z</time>
      </trkpt>
      <trkpt lat="53.15509170" lon="8.722085830">
        <ele>5.0000000</ele>
        <time>2010-01-01T01:44:50Z</time>
      </trkpt>
      <trkpt lat="53.15534010" lon="8.722622590">
        <ele>2.0000000</ele>
        <time>2010-01-01T01:45:06Z</time>
      </trkpt>
      <trkpt lat="53.15555900" lon="8.722023000">
        <ele>4.0000000</ele>
        <time>2010-01-01T01:45:23Z</time>
      </trkpt>
      <trkpt lat="53.15559020" lon="8.721933070">
        <ele>5.0000000</ele>
        <time>2010-01-01T01:45:25Z</time>
      </trkpt>
      <trkpt lat="53.15598820" lon="8.721033210">
        <ele>7.0000000</ele>
        <time>2010-01-01T01:45:52Z</time>
      </trkpt>
      <trkpt lat="53.15604660" lon="8.721032830">
        <ele>7.0000000</ele>
        <time>2010-01-01T01:45:55Z</time>
      </trkpt>
      <trkpt lat="53.15598820" lon="8.721033210">
        <ele>7.0000000</ele>
        <time>2010-01-01T01:45:57Z</time>
      </trkpt>
      <trkpt lat="53.15619940" lon="8.721031840">
        <ele>7.0000000</ele>
        <time>2010-01-01T01:46:05Z</time>
      </trkpt>
      <trkpt lat="53.15625180" lon="8.720373480">
        <ele>7.0000000</ele>
        <time>2010-01-01T01:46:21Z</time>
      </trkpt>
      <trkpt lat="53.15639910" lon="8.719953780">
        <ele>7.0000000</ele>
        <time>2010-01-01T01:46:33Z</time>
      </trkpt>
      <trkpt lat="53.15647480" lon="8.719654190">
        <ele>6.0000000</ele>
        <time>2010-01-01T01:46:41Z</time>
      </trkpt>
      <trkpt lat="53.15695110" lon="8.717677010">
        <ele>6.0000000</ele>
        <time>2010-01-01T01:47:32Z</time>
      </trkpt>
      <trkpt lat="53.15695820" lon="8.716899290">
        <ele>8.0000000</ele>
        <time>2010-01-01T01:47:51Z</time>
      </trkpt>
      <trkpt lat="53.15695800" lon="8.716809560">
        <ele>8.0000000</ele>
        <time>2010-01-01T01:47:53Z</time>
      </trkpt>
      <trkpt lat="53.15703450" lon="8.714954610">
        <ele>5.0000000</ele>
        <time>2010-01-01T01:48:37Z</time>
      </trkpt>
      <trkpt lat="53.15706600" lon="8.714954410">
        <ele>5.0000000</ele>
        <time>2010-01-01T01:48:39Z</time>
      </trkpt>
      <trkpt lat="53.15713220" lon="8.714079950">
        <ele>6.0000000</ele>
        <time>2010-01-01T01:49:00Z</time>
      </trkpt>
      <trkpt lat="53.15717920" lon="8.713458130">
        <ele>6.0000000</ele>
        <time>2010-01-01T01:49:15Z</time>
      </trkpt>
      <trkpt lat="53.15720540" lon="8.713128940">
        <ele>6.0000000</ele>
        <time>2010-01-01T01:49:23Z</time>
      </trkpt>
      <trkpt lat="53.15714100" lon="8.712531160">
        <ele>6.0000000</ele>
        <time>2010-01-01T01:49:37Z</time>
      </trkpt>
      <trkpt lat="53.15700040" lon="8.712222570">
        <ele>6.0000000</ele>
        <time>2010-01-01T01:49:47Z</time>
      </trkpt>
      <trkpt lat="53.15696820" lon="8.711471550">
        <ele>5.0000000</ele>
        <time>2010-01-01T01:50:05Z</time>
      </trkpt>
      <trkpt lat="53.15696670" lon="8.711066720">
        <ele>5.0000000</ele>
        <time>2010-01-01T01:50:14Z</time>
      </trkpt>
      <trkpt lat="53.15679940" lon="8.710116530">
        <ele>5.0000000</ele>
        <time>2010-01-01T01:50:38Z</time>
      </trkpt>
      <trkpt lat="53.15648810" lon="8.708348120">
        <ele>6.0000000</ele>
        <time>2010-01-01T01:51:22Z</time>
      </trkpt>
      <trkpt lat="53.15624130" lon="8.706879610">
        <ele>5.0000000</ele>
        <time>2010-01-01T01:51:59Z</time>
      </trkpt>
      <trkpt lat="53.15603540" lon="8.704369060">
        <ele>7.0000000</ele>
        <time>2010-01-01T01:53:00Z</time>
      </trkpt>
      <trkpt lat="53.15715200" lon="8.704156150">
        <ele>-1.000000</ele>
        <time>2010-01-01T01:53:45Z</time>
      </trkpt>
      <trkpt lat="53.15813130" lon="8.703969950">
        <ele>7.0000000</ele>
        <time>2010-01-01T01:54:24Z</time>
      </trkpt>
      <trkpt lat="53.15818410" lon="8.703505390">
        <ele>7.0000000</ele>
        <time>2010-01-01T01:54:36Z</time>
      </trkpt>
      <trkpt lat="53.15831160" lon="8.702937360">
        <ele>7.0000000</ele>
        <time>2010-01-01T01:54:50Z</time>
      </trkpt>
      <trkpt lat="53.15865370" lon="8.701638570">
        <ele>4.0000000</ele>
        <time>2010-01-01T01:55:24Z</time>
      </trkpt>
      <trkpt lat="53.15957040" lon="8.700699630">
        <ele>2.0000000</ele>
        <time>2010-01-01T01:56:07Z</time>
      </trkpt>
      <trkpt lat="53.16014940" lon="8.699605460">
        <ele>1.0000000</ele>
        <time>2010-01-01T01:56:42Z</time>
      </trkpt>
      <trkpt lat="53.16077330" lon="8.698677420">
        <ele>1.0000000</ele>
        <time>2010-01-01T01:57:16Z</time>
      </trkpt>
      <trkpt lat="53.16155490" lon="8.697625990">
        <ele>-1.000000</ele>
        <time>2010-01-01T01:57:56Z</time>
      </trkpt>
      <trkpt lat="53.16288640" lon="8.696258060">
        <ele>2.0000000</ele>
        <time>2010-01-01T01:58:59Z</time>
      </trkpt>
      <trkpt lat="53.16313090" lon="8.695839640">
        <ele>2.0000000</ele>
        <time>2010-01-01T01:59:13Z</time>
      </trkpt>
      <trkpt lat="53.16336240" lon="8.695528500">
        <ele>2.0000000</ele>
        <time>2010-01-01T01:59:25Z</time>
      </trkpt>
      <trkpt lat="53.16365990" lon="8.695136900">
        <ele>3.0000000</ele>
        <time>2010-01-01T01:59:40Z</time>
      </trkpt>
      <trkpt lat="53.16381590" lon="8.694981330">
        <ele>3.0000000</ele>
        <time>2010-01-01T01:59:47Z</time>
      </trkpt>
      <trkpt lat="53.16397670" lon="8.694723840">
        <ele>2.0000000</ele>
        <time>2010-01-01T01:59:56Z</time>
      </trkpt>
      <trkpt lat="53.16408930" lon="8.694380520">
        <ele>1.0000000</ele>
        <time>2010-01-01T02:00:05Z</time>
      </trkpt>
      <trkpt lat="53.16434260" lon="8.693187560">
        <ele>0.0000000</ele>
        <time>2010-01-01T02:00:36Z</time>
      </trkpt>
      <trkpt lat="53.16449490" lon="8.692442000">
        <ele>-1.000000</ele>
        <time>2010-01-01T02:00:55Z</time>
      </trkpt>
      <trkpt lat="53.16469770" lon="8.691449910">
        <ele>0.0000000</ele>
        <time>2010-01-01T02:01:20Z</time>
      </trkpt>
      <trkpt lat="53.16475090" lon="8.691180290">
        <ele>1.0000000</ele>
        <time>2010-01-01T02:01:27Z</time>
      </trkpt>
      <trkpt lat="53.16476840" lon="8.691000670">
        <ele>2.0000000</ele>
        <time>2010-01-01T02:01:31Z</time>
      </trkpt>
      <trkpt lat="53.16472250" lon="8.690612090">
        <ele>3.0000000</ele>
        <time>2010-01-01T02:01:40Z</time>
      </trkpt>
      <trkpt lat="53.16468540" lon="8.690193540">
        <ele>5.0000000</ele>
        <time>2010-01-01T02:01:51Z</time>
      </trkpt>
      <trkpt lat="53.16468490" lon="8.690014050">
        <ele>5.0000000</ele>
        <time>2010-01-01T02:01:55Z</time>
      </trkpt>
      <trkpt lat="53.16472070" lon="8.689924040">
        <ele>6.0000000</ele>
        <time>2010-01-01T02:01:58Z</time>
      </trkpt>
      <trkpt lat="53.16475650" lon="8.689863950">
        <ele>6.0000000</ele>
        <time>2010-01-01T02:02:00Z</time>
      </trkpt>
      <trkpt lat="53.16529980" lon="8.689650620">
        <ele>5.0000000</ele>
        <time>2010-01-01T02:02:22Z</time>
      </trkpt>
      <trkpt lat="53.16528150" lon="8.689561010">
        <ele>5.0000000</ele>
        <time>2010-01-01T02:02:24Z</time>
      </trkpt>
      <trkpt lat="53.16504560" lon="8.688725060">
        <ele>8.0000000</ele>
        <time>2010-01-01T02:02:46Z</time>
      </trkpt>
      <trkpt lat="53.16505910" lon="8.688724960">
        <ele>8.0000000</ele>
        <time>2010-01-01T02:02:47Z</time>
      </trkpt>
      <trkpt lat="53.16493830" lon="8.688324090">
        <ele>8.0000000</ele>
        <time>2010-01-01T02:02:58Z</time>
      </trkpt>
      <trkpt lat="53.16495440" lon="8.688217150">
        <ele>9.0000000</ele>
        <time>2010-01-01T02:03:00Z</time>
      </trkpt>
      <trkpt lat="53.16493170" lon="8.688127570">
        <ele>9.0000000</ele>
        <time>2010-01-01T02:03:03Z</time>
      </trkpt>
      <trkpt lat="53.16482770" lon="8.687889000">
        <ele>9.0000000</ele>
        <time>2010-01-01T02:03:10Z</time>
      </trkpt>
      <trkpt lat="53.16466040" lon="8.687501300">
        <ele>10.000000</ele>
        <time>2010-01-01T02:03:21Z</time>
      </trkpt>
      <trkpt lat="53.16462410" lon="8.687351990">
        <ele>11.000000</ele>
        <time>2010-01-01T02:03:25Z</time>
      </trkpt>
      <trkpt lat="53.16461920" lon="8.687232360">
        <ele>11.000000</ele>
        <time>2010-01-01T02:03:28Z</time>
      </trkpt>
      <trkpt lat="53.16460980" lon="8.687052940">
        <ele>13.000000</ele>
        <time>2010-01-01T02:03:32Z</time>
      </trkpt>
      <trkpt lat="53.16454640" lon="8.686873900">
        <ele>15.000000</ele>
        <time>2010-01-01T02:03:37Z</time>
      </trkpt>
      <trkpt lat="53.16446970" lon="8.686784720">
        <ele>16.000000</ele>
        <time>2010-01-01T02:03:41Z</time>
      </trkpt>
      <trkpt lat="53.16437480" lon="8.686691730">
        <ele>16.000000</ele>
        <time>2010-01-01T02:03:45Z</time>
      </trkpt>
      <trkpt lat="53.16413630" lon="8.686458070">
        <ele>13.000000</ele>
        <time>2010-01-01T02:03:56Z</time>
      </trkpt>
      <trkpt lat="53.16394210" lon="8.686100510">
        <ele>10.000000</ele>
        <time>2010-01-01T02:04:08Z</time>
      </trkpt>
      <trkpt lat="53.16387380" lon="8.685840360">
        <ele>11.000000</ele>
        <time>2010-01-01T02:04:15Z</time>
      </trkpt>
      <trkpt lat="53.16386740" lon="8.685641880">
        <ele>13.000000</ele>
        <time>2010-01-01T02:04:20Z</time>
      </trkpt>
      <trkpt lat="53.16378050" lon="8.685078620">
        <ele>15.000000</ele>
        <time>2010-01-01T02:04:34Z</time>
      </trkpt>
      <trkpt lat="53.16348840" lon="8.684488410">
        <ele>8.0000000</ele>
        <time>2010-01-01T02:04:52Z</time>
      </trkpt>
      <trkpt lat="53.16343840" lon="8.684309290">
        <ele>7.0000000</ele>
        <time>2010-01-01T02:04:57Z</time>
      </trkpt>
      <trkpt lat="53.16348760" lon="8.684189270">
        <ele>8.0000000</ele>
        <time>2010-01-01T02:05:00Z</time>
      </trkpt>
      <trkpt lat="53.16370660" lon="8.683775060">
        <ele>11.000000</ele>
        <time>2010-01-01T02:05:13Z</time>
      </trkpt>
      <trkpt lat="53.16368730" lon="8.683533660">
        <ele>11.000000</ele>
        <time>2010-01-01T02:05:19Z</time>
      </trkpt>
      <trkpt lat="53.16352650" lon="8.682766550">
        <ele>11.000000</ele>
        <time>2010-01-01T02:05:39Z</time>
      </trkpt>
      <trkpt lat="53.16340100" lon="8.682578800">
        <ele>13.000000</ele>
        <time>2010-01-01T02:05:46Z</time>
      </trkpt>
      <trkpt lat="53.16324790" lon="8.681947420">
        <ele>15.000000</ele>
        <time>2010-01-01T02:06:02Z</time>
      </trkpt>
      <trkpt lat="53.16324340" lon="8.681947460">
        <ele>15.000000</ele>
        <time>2010-01-01T02:06:02Z</time>
      </trkpt>
      <trkpt lat="53.16313840" lon="8.681349940">
        <ele>15.000000</ele>
        <time>2010-01-01T02:06:17Z</time>
      </trkpt>
      <trkpt lat="53.16313730" lon="8.681044570">
        <ele>15.000000</ele>
        <time>2010-01-01T02:06:24Z</time>
      </trkpt>
      <trkpt lat="53.16307410" lon="8.680841870">
        <ele>15.000000</ele>
        <time>2010-01-01T02:06:30Z</time>
      </trkpt>
      <trkpt lat="53.16276580" lon="8.679827070">
        <ele>13.000000</ele>
        <time>2010-01-01T02:06:57Z</time>
      </trkpt>
      <trkpt lat="53.16272490" lon="8.679677800">
        <ele>12.000000</ele>
        <time>2010-01-01T02:07:01Z</time>
      </trkpt>
      <trkpt lat="53.16248660" lon="8.679649660">
        <ele>7.0000000</ele>
        <time>2010-01-01T02:07:11Z</time>
      </trkpt>
      <trkpt lat="53.16245870" lon="8.679065100">
        <ele>6.0000000</ele>
        <time>2010-01-01T02:07:25Z</time>
      </trkpt>
      <trkpt lat="53.16242330" lon="8.678630590">
        <ele>5.0000000</ele>
        <time>2010-01-01T02:07:35Z</time>
      </trkpt>
      <trkpt lat="53.16246830" lon="8.678212160">
        <ele>7.0000000</ele>
        <time>2010-01-01T02:07:45Z</time>
      </trkpt>
      <trkpt lat="53.16244260" lon="8.677681080">
        <ele>7.0000000</ele>
        <time>2010-01-01T02:07:58Z</time>
      </trkpt>
      <trkpt lat="53.16253910" lon="8.677150010">
        <ele>9.0000000</ele>
        <time>2010-01-01T02:08:12Z</time>
      </trkpt>
      <trkpt lat="53.16247480" lon="8.676801320">
        <ele>8.0000000</ele>
        <time>2010-01-01T02:08:20Z</time>
      </trkpt>
      <trkpt lat="53.16242010" lon="8.676071760">
        <ele>7.0000000</ele>
        <time>2010-01-01T02:08:38Z</time>
      </trkpt>
      <trkpt lat="53.16245230" lon="8.675819630">
        <ele>6.0000000</ele>
        <time>2010-01-01T02:08:44Z</time>
      </trkpt>
      <trkpt lat="53.16248490" lon="8.675700990">
        <ele>6.0000000</ele>
        <time>2010-01-01T02:08:47Z</time>
      </trkpt>
      <trkpt lat="53.16255840" lon="8.675487040">
        <ele>6.0000000</ele>
        <time>2010-01-01T02:08:53Z</time>
      </trkpt>
      <trkpt lat="53.16262270" lon="8.675234910">
        <ele>6.0000000</ele>
        <time>2010-01-01T02:09:00Z</time>
      </trkpt>
      <trkpt lat="53.16272880" lon="8.674703830">
        <ele>6.0000000</ele>
        <time>2010-01-01T02:09:13Z</time>
      </trkpt>
      <trkpt lat="53.16279940" lon="8.673993500">
        <ele>5.0000000</ele>
        <time>2010-01-01T02:09:30Z</time>
      </trkpt>
      <trkpt lat="53.16279870" lon="8.673754190">
        <ele>5.0000000</ele>
        <time>2010-01-01T02:09:36Z</time>
      </trkpt>
      <trkpt lat="53.16279800" lon="8.673484970">
        <ele>6.0000000</ele>
        <time>2010-01-01T02:09:43Z</time>
      </trkpt>
      <trkpt lat="53.16279790" lon="8.673483870">
        <ele>6.0000000</ele>
        <time>2010-01-01T02:09:43Z</time>
      </trkpt>
      <trkpt lat="53.16278410" lon="8.673335500">
        <ele>7.0000000</ele>
        <time>2010-01-01T02:09:46Z</time>
      </trkpt>
      <trkpt lat="53.16275660" lon="8.673156220">
        <ele>8.0000000</ele>
        <time>2010-01-01T02:09:51Z</time>
      </trkpt>
      <trkpt lat="53.16271100" lon="8.672887340">
        <ele>9.0000000</ele>
        <time>2010-01-01T02:09:57Z</time>
      </trkpt>
      <trkpt lat="53.16265630" lon="8.672618530">
        <ele>9.0000000</ele>
        <time>2010-01-01T02:10:04Z</time>
      </trkpt>
      <trkpt lat="53.16257010" lon="8.672349950">
        <ele>8.0000000</ele>
        <time>2010-01-01T02:10:12Z</time>
      </trkpt>
      <trkpt lat="53.16249310" lon="8.672111230">
        <ele>7.0000000</ele>
        <time>2010-01-01T02:10:18Z</time>
      </trkpt>
      <trkpt lat="53.16245220" lon="8.671961970">
        <ele>7.0000000</ele>
        <time>2010-01-01T02:10:22Z</time>
      </trkpt>
      <trkpt lat="53.16242940" lon="8.671842480">
        <ele>7.0000000</ele>
        <time>2010-01-01T02:10:25Z</time>
      </trkpt>
      <trkpt lat="53.16242020" lon="8.671752810">
        <ele>7.0000000</ele>
        <time>2010-01-01T02:10:27Z</time>
      </trkpt>
      <trkpt lat="53.16241990" lon="8.671633160">
        <ele>7.0000000</ele>
        <time>2010-01-01T02:10:30Z</time>
      </trkpt>
      <trkpt lat="53.16243310" lon="8.671543310">
        <ele>8.0000000</ele>
        <time>2010-01-01T02:10:32Z</time>
      </trkpt>
      <trkpt lat="53.16244630" lon="8.671453470">
        <ele>8.0000000</ele>
        <time>2010-01-01T02:10:35Z</time>
      </trkpt>
      <trkpt lat="53.16245950" lon="8.671333710">
        <ele>8.0000000</ele>
        <time>2010-01-01T02:10:37Z</time>
      </trkpt>
      <trkpt lat="53.16245900" lon="8.671154230">
        <ele>8.0000000</ele>
        <time>2010-01-01T02:10:42Z</time>
      </trkpt>
      <trkpt lat="53.16247210" lon="8.671004560">
        <ele>8.0000000</ele>
        <time>2010-01-01T02:10:45Z</time>
      </trkpt>
      <trkpt lat="53.16251670" lon="8.670884560">
        <ele>9.0000000</ele>
        <time>2010-01-01T02:10:49Z</time>
      </trkpt>
      <trkpt lat="53.16258830" lon="8.670794270">
        <ele>10.000000</ele>
        <time>2010-01-01T02:10:52Z</time>
      </trkpt>
      <trkpt lat="53.16260660" lon="8.670476670">
        <ele>11.000000</ele>
        <time>2010-01-01T02:11:00Z</time>
      </trkpt>
      <trkpt lat="53.16260660" lon="8.669639820">
        <ele>13.000000</ele>
        <time>2010-01-01T02:11:20Z</time>
      </trkpt>
      <trkpt lat="53.16254870" lon="8.668872710">
        <ele>13.000000</ele>
        <time>2010-01-01T02:11:39Z</time>
      </trkpt>
      <trkpt lat="53.16259380" lon="8.668465010">
        <ele>17.000000</ele>
        <time>2010-01-01T02:11:49Z</time>
      </trkpt>
      <trkpt lat="53.16258560" lon="8.668220740">
        <ele>18.000000</ele>
        <time>2010-01-01T02:11:54Z</time>
      </trkpt>
      <trkpt lat="53.16251980" lon="8.667966120">
        <ele>17.000000</ele>
        <time>2010-01-01T02:12:01Z</time>
      </trkpt>
      <trkpt lat="53.16244090" lon="8.667893720">
        <ele>15.000000</ele>
        <time>2010-01-01T02:12:05Z</time>
      </trkpt>
      <trkpt lat="53.16225930" lon="8.667719360">
        <ele>10.000000</ele>
        <time>2010-01-01T02:12:13Z</time>
      </trkpt>
      <trkpt lat="53.16206630" lon="8.667365310">
        <ele>8.0000000</ele>
        <time>2010-01-01T02:12:25Z</time>
      </trkpt>
      <trkpt lat="53.16191840" lon="8.666582100">
        <ele>11.000000</ele>
        <time>2010-01-01T02:12:44Z</time>
      </trkpt>
      <trkpt lat="53.16185720" lon="8.666190500">
        <ele>11.000000</ele>
        <time>2010-01-01T02:12:54Z</time>
      </trkpt>
      <trkpt lat="53.16167710" lon="8.665841810">
        <ele>10.000000</ele>
        <time>2010-01-01T02:13:05Z</time>
      </trkpt>
      <trkpt lat="53.16160960" lon="8.665611140">
        <ele>9.0000000</ele>
        <time>2010-01-01T02:13:11Z</time>
      </trkpt>
      <trkpt lat="53.16162890" lon="8.665149800">
        <ele>12.000000</ele>
        <time>2010-01-01T02:13:22Z</time>
      </trkpt>
      <trkpt lat="53.16164500" lon="8.664865490">
        <ele>14.000000</ele>
        <time>2010-01-01T02:13:29Z</time>
      </trkpt>
      <trkpt lat="53.16154570" lon="8.664400750">
        <ele>15.000000</ele>
        <time>2010-01-01T02:13:41Z</time>
      </trkpt>
      <trkpt lat="53.16143140" lon="8.663713630">
        <ele>13.000000</ele>
        <time>2010-01-01T02:13:58Z</time>
      </trkpt>
      <trkpt lat="53.16142630" lon="8.663465380">
        <ele>11.000000</ele>
        <time>2010-01-01T02:14:04Z</time>
      </trkpt>
      <trkpt lat="53.16144290" lon="8.662995610">
        <ele>9.0000000</ele>
        <time>2010-01-01T02:14:15Z</time>
      </trkpt>
      <trkpt lat="53.16144250" lon="8.662875960">
        <ele>8.0000000</ele>
        <time>2010-01-01T02:14:18Z</time>
      </trkpt>
      <trkpt lat="53.16144230" lon="8.662786220">
        <ele>8.0000000</ele>
        <time>2010-01-01T02:14:20Z</time>
      </trkpt>
      <trkpt lat="53.16150880" lon="8.662456650">
        <ele>8.0000000</ele>
        <time>2010-01-01T02:14:29Z</time>
      </trkpt>
      <trkpt lat="53.16162910" lon="8.662096750">
        <ele>9.0000000</ele>
        <time>2010-01-01T02:14:39Z</time>
      </trkpt>
      <trkpt lat="53.16170040" lon="8.661886790">
        <ele>10.000000</ele>
        <time>2010-01-01T02:14:44Z</time>
      </trkpt>
      <trkpt lat="53.16175430" lon="8.661797040">
        <ele>10.000000</ele>
        <time>2010-01-01T02:14:47Z</time>
      </trkpt>
      <trkpt lat="53.16172860" lon="8.661679020">
        <ele>10.000000</ele>
        <time>2010-01-01T02:14:51Z</time>
      </trkpt>
      <trkpt lat="53.16153240" lon="8.661239140">
        <ele>9.0000000</ele>
        <time>2010-01-01T02:15:04Z</time>
      </trkpt>
      <trkpt lat="53.16149700" lon="8.661024570">
        <ele>8.0000000</ele>
        <time>2010-01-01T02:15:09Z</time>
      </trkpt>
      <trkpt lat="53.16140050" lon="8.659796110">
        <ele>9.0000000</ele>
        <time>2010-01-01T02:15:39Z</time>
      </trkpt>
      <trkpt lat="53.16124710" lon="8.658958840">
        <ele>11.000000</ele>
        <time>2010-01-01T02:16:00Z</time>
      </trkpt>
      <trkpt lat="53.16123790" lon="8.658869180">
        <ele>12.000000</ele>
        <time>2010-01-01T02:16:02Z</time>
      </trkpt>
      <trkpt lat="53.16116190" lon="8.657463850">
        <ele>11.000000</ele>
        <time>2010-01-01T02:16:36Z</time>
      </trkpt>
      <trkpt lat="53.16120860" lon="8.656506250">
        <ele>11.000000</ele>
        <time>2010-01-01T02:16:59Z</time>
      </trkpt>
      <trkpt lat="53.16139090" lon="8.655284640">
        <ele>11.000000</ele>
        <time>2010-01-01T02:17:29Z</time>
      </trkpt>
      <trkpt lat="53.16132140" lon="8.653543930">
        <ele>7.0000000</ele>
        <time>2010-01-01T02:18:11Z</time>
      </trkpt>
      <trkpt lat="53.16169120" lon="8.650908540">
        <ele>13.000000</ele>
        <time>2010-01-01T02:19:16Z</time>
      </trkpt>
      <trkpt lat="53.16180580" lon="8.648723950">
        <ele>11.000000</ele>
        <time>2010-01-01T02:20:09Z</time>
      </trkpt>
      <trkpt lat="53.16185720" lon="8.646481630">
        <ele>14.000000</ele>
        <time>2010-01-01T02:21:02Z</time>
      </trkpt>
      <trkpt lat="53.16192160" lon="8.644668450">
        <ele>14.000000</ele>
        <time>2010-01-01T02:21:46Z</time>
      </trkpt>
      <trkpt lat="53.16206310" lon="8.642957210">
        <ele>6.0000000</ele>
        <time>2010-01-01T02:22:27Z</time>
      </trkpt>
      <trkpt lat="53.16227210" lon="8.641342520">
        <ele>5.0000000</ele>
        <time>2010-01-01T02:23:07Z</time>
      </trkpt>
      <trkpt lat="53.16240080" lon="8.640189170">
        <ele>5.0000000</ele>
        <time>2010-01-01T02:23:35Z</time>
      </trkpt>
      <trkpt lat="53.16260870" lon="8.639025110">
        <ele>6.0000000</ele>
        <time>2010-01-01T02:24:04Z</time>
      </trkpt>
      <trkpt lat="53.16266170" lon="8.638725520">
        <ele>6.0000000</ele>
        <time>2010-01-01T02:24:12Z</time>
      </trkpt>
      <trkpt lat="53.16270560" lon="8.638396100">
        <ele>7.0000000</ele>
        <time>2010-01-01T02:24:20Z</time>
      </trkpt>
      <trkpt lat="53.16274060" lon="8.638066740">
        <ele>8.0000000</ele>
        <time>2010-01-01T02:24:28Z</time>
      </trkpt>
      <trkpt lat="53.16285430" lon="8.636836400">
        <ele>10.000000</ele>
        <time>2010-01-01T02:24:58Z</time>
      </trkpt>
      <trkpt lat="53.16301190" lon="8.636090750">
        <ele>9.0000000</ele>
        <time>2010-01-01T02:25:17Z</time>
      </trkpt>
      <trkpt lat="53.16322990" lon="8.634921580">
        <ele>7.0000000</ele>
        <time>2010-01-01T02:25:46Z</time>
      </trkpt>
      <trkpt lat="53.16326560" lon="8.634831530">
        <ele>7.0000000</ele>
        <time>2010-01-01T02:25:49Z</time>
      </trkpt>
      <trkpt lat="53.16346210" lon="8.634223930">
        <ele>6.0000000</ele>
        <time>2010-01-01T02:26:05Z</time>
      </trkpt>
      <trkpt lat="53.16373550" lon="8.633891340">
        <ele>7.0000000</ele>
        <time>2010-01-01T02:26:19Z</time>
      </trkpt>
      <trkpt lat="53.16388020" lon="8.633462190">
        <ele>9.0000000</ele>
        <time>2010-01-01T02:26:31Z</time>
      </trkpt>
      <trkpt lat="53.16395420" lon="8.633022300">
        <ele>9.0000000</ele>
        <time>2010-01-01T02:26:42Z</time>
      </trkpt>
      <trkpt lat="53.16421150" lon="8.632378570">
        <ele>10.000000</ele>
        <time>2010-01-01T02:27:00Z</time>
      </trkpt>
      <trkpt lat="53.16440770" lon="8.631906500">
        <ele>10.000000</ele>
        <time>2010-01-01T02:27:14Z</time>
      </trkpt>
      <trkpt lat="53.16486440" lon="8.631396880">
        <ele>11.000000</ele>
        <time>2010-01-01T02:27:36Z</time>
      </trkpt>
      <trkpt lat="53.16505170" lon="8.631017030">
        <ele>10.000000</ele>
        <time>2010-01-01T02:27:48Z</time>
      </trkpt>
      <trkpt lat="53.16533390" lon="8.630468840">
        <ele>10.000000</ele>
        <time>2010-01-01T02:28:05Z</time>
      </trkpt>
      <trkpt lat="53.16556540" lon="8.630109420">
        <ele>9.0000000</ele>
        <time>2010-01-01T02:28:18Z</time>
      </trkpt>
      <trkpt lat="53.16571320" lon="8.629844620">
        <ele>7.0000000</ele>
        <time>2010-01-01T02:28:27Z</time>
      </trkpt>
      <trkpt lat="53.16576220" lon="8.629694610">
        <ele>7.0000000</ele>
        <time>2010-01-01T02:28:31Z</time>
      </trkpt>
      <trkpt lat="53.16574830" lon="8.629545150">
        <ele>7.0000000</ele>
        <time>2010-01-01T02:28:34Z</time>
      </trkpt>
      <trkpt lat="53.16569320" lon="8.629186630">
        <ele>5.0000000</ele>
        <time>2010-01-01T02:28:43Z</time>
      </trkpt>
      <trkpt lat="53.16565210" lon="8.628977560">
        <ele>3.0000000</ele>
        <time>2010-01-01T02:28:48Z</time>
      </trkpt>
      <trkpt lat="53.16560190" lon="8.628738670">
        <ele>2.0000000</ele>
        <time>2010-01-01T02:28:55Z</time>
      </trkpt>
      <trkpt lat="53.16551990" lon="8.628380380">
        <ele>1.0000000</ele>
        <time>2010-01-01T02:29:04Z</time>
      </trkpt>
      <trkpt lat="53.16611420" lon="8.627215180">
        <ele>1.0000000</ele>
        <time>2010-01-01T02:29:40Z</time>
      </trkpt>
      <trkpt lat="53.16640890" lon="8.626637510">
        <ele>2.0000000</ele>
        <time>2010-01-01T02:29:59Z</time>
      </trkpt>
      <trkpt lat="53.16673930" lon="8.625962730">
        <ele>1.0000000</ele>
        <time>2010-01-01T02:30:20Z</time>
      </trkpt>
      <trkpt lat="53.16687430" lon="8.626048560">
        <ele>1.0000000</ele>
        <time>2010-01-01T02:30:25Z</time>
      </trkpt>
      <trkpt lat="53.16700300" lon="8.626188030">
        <ele>2.0000000</ele>
        <time>2010-01-01T02:30:31Z</time>
      </trkpt>
      <trkpt lat="53.16700940" lon="8.626381150">
        <ele>3.0000000</ele>
        <time>2010-01-01T02:30:36Z</time>
      </trkpt>
      <trkpt lat="53.16674570" lon="8.626906870">
        <ele>6.0000000</ele>
        <time>2010-01-01T02:30:53Z</time>
      </trkpt>
      <trkpt lat="53.16662350" lon="8.626971240">
        <ele>5.0000000</ele>
        <time>2010-01-01T02:30:58Z</time>
      </trkpt>
      <trkpt lat="53.16661710" lon="8.627132170">
        <ele>5.0000000</ele>
        <time>2010-01-01T02:31:02Z</time>
      </trkpt>
      <trkpt lat="53.16676560" lon="8.627172930">
        <ele>7.0000000</ele>
        <time>2010-01-01T02:31:08Z</time>
      </trkpt>
      <trkpt lat="53.16694980" lon="8.627141410">
        <ele>7.0000000</ele>
        <time>2010-01-01T02:31:15Z</time>
      </trkpt>
      <trkpt lat="53.16707130" lon="8.627200190">
        <ele>7.0000000</ele>
        <time>2010-01-01T02:31:20Z</time>
      </trkpt>
      <trkpt lat="53.16711640" lon="8.627229720">
        <ele>8.0000000</ele>
        <time>2010-01-01T02:31:22Z</time>
      </trkpt>
      <trkpt lat="53.16721540" lon="8.627258780">
        <ele>8.0000000</ele>
        <time>2010-01-01T02:31:26Z</time>
      </trkpt>
      <trkpt lat="53.16735950" lon="8.627347290">
        <ele>8.0000000</ele>
        <time>2010-01-01T02:31:32Z</time>
      </trkpt>
      <trkpt lat="53.16738640" lon="8.627347050">
        <ele>7.0000000</ele>
        <time>2010-01-01T02:31:33Z</time>
      </trkpt>
      <trkpt lat="53.16741350" lon="8.627376740">
        <ele>8.0000000</ele>
        <time>2010-01-01T02:31:35Z</time>
      </trkpt>
      <trkpt lat="53.16750820" lon="8.627465670">
        <ele>8.0000000</ele>
        <time>2010-01-01T02:31:39Z</time>
      </trkpt>
      <trkpt lat="53.16763430" lon="8.627554330">
        <ele>8.0000000</ele>
        <time>2010-01-01T02:31:44Z</time>
      </trkpt>
      <trkpt lat="53.16776480" lon="8.627613040">
        <ele>7.0000000</ele>
        <time>2010-01-01T02:31:50Z</time>
      </trkpt>
      <trkpt lat="53.16800800" lon="8.627760520">
        <ele>7.0000000</ele>
        <time>2010-01-01T02:32:00Z</time>
      </trkpt>
      <trkpt lat="53.16827380" lon="8.627967650">
        <ele>7.0000000</ele>
        <time>2010-01-01T02:32:12Z</time>
      </trkpt>
      <trkpt lat="53.16840450" lon="8.628086190">
        <ele>7.0000000</ele>
        <time>2010-01-01T02:32:18Z</time>
      </trkpt>
      <trkpt lat="53.16846770" lon="8.628175400">
        <ele>7.0000000</ele>
        <time>2010-01-01T02:32:21Z</time>
      </trkpt>
      <trkpt lat="53.16853100" lon="8.628294530">
        <ele>7.0000000</ele>
        <time>2010-01-01T02:32:25Z</time>
      </trkpt>
      <trkpt lat="53.16859440" lon="8.628443570">
        <ele>7.0000000</ele>
        <time>2010-01-01T02:32:29Z</time>
      </trkpt>
      <trkpt lat="53.16867050" lon="8.628353160">
        <ele>6.0000000</ele>
        <time>2010-01-01T02:32:33Z</time>
      </trkpt>
      <trkpt lat="53.16881850" lon="8.628232210">
        <ele>5.0000000</ele>
        <time>2010-01-01T02:32:40Z</time>
      </trkpt>
      <trkpt lat="53.16914470" lon="8.628097770">
        <ele>3.0000000</ele>
        <time>2010-01-01T02:32:53Z</time>
      </trkpt>
      <trkpt lat="53.16918330" lon="8.628205060">
        <ele>4.0000000</ele>
        <time>2010-01-01T02:32:56Z</time>
      </trkpt>
      <trkpt lat="53.16930440" lon="8.628377600">
        <ele>5.0000000</ele>
        <time>2010-01-01T02:33:03Z</time>
      </trkpt>
      <trkpt lat="53.16949810" lon="8.628525520">
        <ele>6.0000000</ele>
        <time>2010-01-01T02:33:11Z</time>
      </trkpt>
      <trkpt lat="53.16956120" lon="8.628584820">
        <ele>7.0000000</ele>
        <time>2010-01-01T02:33:14Z</time>
      </trkpt>
      <trkpt lat="53.16961100" lon="8.628704060">
        <ele>7.0000000</ele>
        <time>2010-01-01T02:33:17Z</time>
      </trkpt>
      <trkpt lat="53.16963820" lon="8.628763670">
        <ele>7.0000000</ele>
        <time>2010-01-01T02:33:19Z</time>
      </trkpt>
      <trkpt lat="53.16966060" lon="8.628763470">
        <ele>8.0000000</ele>
        <time>2010-01-01T02:33:20Z</time>
      </trkpt>
      <trkpt lat="53.16972800" lon="8.628762890">
        <ele>8.0000000</ele>
        <time>2010-01-01T02:33:23Z</time>
      </trkpt>
      <trkpt lat="53.16978200" lon="8.628762430">
        <ele>8.0000000</ele>
        <time>2010-01-01T02:33:25Z</time>
      </trkpt>
      <trkpt lat="53.16981370" lon="8.628851910">
        <ele>8.0000000</ele>
        <time>2010-01-01T02:33:28Z</time>
      </trkpt>
      <trkpt lat="53.17000880" lon="8.629448620">
        <ele>5.0000000</ele>
        <time>2010-01-01T02:33:44Z</time>
      </trkpt>
      <trkpt lat="53.17008130" lon="8.629627510">
        <ele>5.0000000</ele>
        <time>2010-01-01T02:33:49Z</time>
      </trkpt>
    </trkseg>
  </trk>
</gpx>

